<?xml version="1.0" encoding="UTF-8" standalone="no" ?>
<gpx xmlns="http://www.topografix.com/GPX/1/1" xmlns:xsi="http://www.w3.org/2001/XMLSchema-instance" xsi:schemaLocation="http://www.topografix.com/GPX/1/1 http://www.topografix.com/GPX/1/1/gpx.xsd" version="1.1" creator="VisuGPX - https://www.visugpx.com">
  <metadata>
    <name>2023-06-19-46-SALVIAC</name>
    <desc><![CDATA[Belle randonnée de 10 km pour environ 280 m de dénivelé positif. Ce circuit vous amènera par de beaux chemins à la découverte de Pech Curet avec son four à pain et son petit lac protégé par une porte et des murs. Des gariottes un peu partout, un dolmen, et un beau village. Ne pas manquer de visiter l'église et son trésor ecclésiastique]]></desc>
  </metadata>
  <trk>
    <name><![CDATA[SALVIAC PAUL 19 6 2023]]></name>
    <trkseg>
      <trkpt lat="44.68368" lon="1.2699">
        <ele>149.62</ele>
        <time>2023-06-19T06:59:48Z</time>
      </trkpt>
      <trkpt lat="44.68368" lon="1.2699">
        <ele>148.18</ele>
        <time>2023-06-19T07:00:03Z</time>
      </trkpt>
      <trkpt lat="44.68368" lon="1.2698">
        <ele>149.14</ele>
        <time>2023-06-19T07:04:09Z</time>
      </trkpt>
      <trkpt lat="44.68365" lon="1.26967">
        <ele>149.14</ele>
        <time>2023-06-19T07:04:22Z</time>
      </trkpt>
      <trkpt lat="44.68369" lon="1.26953">
        <ele>149.14</ele>
        <time>2023-06-19T07:04:36Z</time>
      </trkpt>
      <trkpt lat="44.68382" lon="1.26957">
        <ele>151.06</ele>
        <time>2023-06-19T07:04:53Z</time>
      </trkpt>
      <trkpt lat="44.68391" lon="1.26967">
        <ele>151.06</ele>
        <time>2023-06-19T07:05:08Z</time>
      </trkpt>
      <trkpt lat="44.684" lon="1.2697">
        <ele>151.06</ele>
        <time>2023-06-19T07:05:16Z</time>
      </trkpt>
      <trkpt lat="44.6841" lon="1.26971">
        <ele>151.06</ele>
        <time>2023-06-19T07:05:24Z</time>
      </trkpt>
      <trkpt lat="44.68416" lon="1.2696">
        <ele>151.06</ele>
        <time>2023-06-19T07:05:35Z</time>
      </trkpt>
      <trkpt lat="44.68427" lon="1.26962">
        <ele>152.03</ele>
        <time>2023-06-19T07:05:47Z</time>
      </trkpt>
      <trkpt lat="44.68437" lon="1.26971">
        <ele>152.99</ele>
        <time>2023-06-19T07:06:04Z</time>
      </trkpt>
      <trkpt lat="44.6845" lon="1.26975">
        <ele>153.47</ele>
        <time>2023-06-19T07:06:16Z</time>
      </trkpt>
      <trkpt lat="44.68462" lon="1.26979">
        <ele>153.95</ele>
        <time>2023-06-19T07:06:30Z</time>
      </trkpt>
      <trkpt lat="44.68473" lon="1.26979">
        <ele>154.43</ele>
        <time>2023-06-19T07:06:42Z</time>
      </trkpt>
      <trkpt lat="44.68485" lon="1.26981">
        <ele>155.39</ele>
        <time>2023-06-19T07:06:54Z</time>
      </trkpt>
      <trkpt lat="44.685" lon="1.26981">
        <ele>156.35</ele>
        <time>2023-06-19T07:07:08Z</time>
      </trkpt>
      <trkpt lat="44.68512" lon="1.26983">
        <ele>157.31</ele>
        <time>2023-06-19T07:07:22Z</time>
      </trkpt>
      <trkpt lat="44.68527" lon="1.26984">
        <ele>157.79</ele>
        <time>2023-06-19T07:07:38Z</time>
      </trkpt>
      <trkpt lat="44.68538" lon="1.2698">
        <ele>158.75</ele>
        <time>2023-06-19T07:07:51Z</time>
      </trkpt>
      <trkpt lat="44.6855" lon="1.26975">
        <ele>160.68</ele>
        <time>2023-06-19T07:08:04Z</time>
      </trkpt>
      <trkpt lat="44.68563" lon="1.26973">
        <ele>161.64</ele>
        <time>2023-06-19T07:08:17Z</time>
      </trkpt>
      <trkpt lat="44.68573" lon="1.26967">
        <ele>162.6</ele>
        <time>2023-06-19T07:08:29Z</time>
      </trkpt>
      <trkpt lat="44.68587" lon="1.26962">
        <ele>163.56</ele>
        <time>2023-06-19T07:08:44Z</time>
      </trkpt>
      <trkpt lat="44.68599" lon="1.26956">
        <ele>165</ele>
        <time>2023-06-19T07:08:59Z</time>
      </trkpt>
      <trkpt lat="44.68608" lon="1.26952">
        <ele>165.48</ele>
        <time>2023-06-19T07:09:12Z</time>
      </trkpt>
      <trkpt lat="44.68619" lon="1.2695">
        <ele>166.45</ele>
        <time>2023-06-19T07:09:24Z</time>
      </trkpt>
      <trkpt lat="44.68633" lon="1.26944">
        <ele>168.37</ele>
        <time>2023-06-19T07:09:40Z</time>
      </trkpt>
      <trkpt lat="44.68645" lon="1.26939">
        <ele>169.33</ele>
        <time>2023-06-19T07:09:56Z</time>
      </trkpt>
      <trkpt lat="44.68657" lon="1.26935">
        <ele>170.77</ele>
        <time>2023-06-19T07:10:09Z</time>
      </trkpt>
      <trkpt lat="44.68669" lon="1.26934">
        <ele>172.21</ele>
        <time>2023-06-19T07:10:24Z</time>
      </trkpt>
      <trkpt lat="44.68679" lon="1.26932">
        <ele>174.14</ele>
        <time>2023-06-19T07:10:38Z</time>
      </trkpt>
      <trkpt lat="44.68692" lon="1.26929">
        <ele>176.54</ele>
        <time>2023-06-19T07:10:54Z</time>
      </trkpt>
      <trkpt lat="44.68703" lon="1.26924">
        <ele>177.98</ele>
        <time>2023-06-19T07:11:08Z</time>
      </trkpt>
      <trkpt lat="44.68714" lon="1.26922">
        <ele>179.42</ele>
        <time>2023-06-19T07:11:23Z</time>
      </trkpt>
      <trkpt lat="44.68725" lon="1.2692">
        <ele>180.87</ele>
        <time>2023-06-19T07:11:36Z</time>
      </trkpt>
      <trkpt lat="44.68738" lon="1.26918">
        <ele>181.35</ele>
        <time>2023-06-19T07:11:54Z</time>
      </trkpt>
      <trkpt lat="44.68748" lon="1.26917">
        <ele>182.31</ele>
        <time>2023-06-19T07:12:04Z</time>
      </trkpt>
      <trkpt lat="44.68758" lon="1.26918">
        <ele>182.79</ele>
        <time>2023-06-19T07:12:15Z</time>
      </trkpt>
      <trkpt lat="44.68767" lon="1.26918">
        <ele>183.27</ele>
        <time>2023-06-19T07:12:25Z</time>
      </trkpt>
      <trkpt lat="44.68779" lon="1.26916">
        <ele>183.27</ele>
        <time>2023-06-19T07:12:36Z</time>
      </trkpt>
      <trkpt lat="44.68789" lon="1.2691">
        <ele>183.75</ele>
        <time>2023-06-19T07:12:47Z</time>
      </trkpt>
      <trkpt lat="44.68799" lon="1.26906">
        <ele>181.83</ele>
        <time>2023-06-19T07:12:58Z</time>
      </trkpt>
      <trkpt lat="44.68809" lon="1.26899">
        <ele>181.35</ele>
        <time>2023-06-19T07:13:09Z</time>
      </trkpt>
      <trkpt lat="44.68818" lon="1.26892">
        <ele>180.38</ele>
        <time>2023-06-19T07:13:23Z</time>
      </trkpt>
      <trkpt lat="44.68825" lon="1.26884">
        <ele>179.9</ele>
        <time>2023-06-19T07:13:36Z</time>
      </trkpt>
      <trkpt lat="44.68834" lon="1.26882">
        <ele>179.9</ele>
        <time>2023-06-19T07:13:59Z</time>
      </trkpt>
      <trkpt lat="44.68843" lon="1.26877">
        <ele>180.38</ele>
        <time>2023-06-19T07:14:10Z</time>
      </trkpt>
      <trkpt lat="44.68848" lon="1.26878">
        <ele>179.9</ele>
        <time>2023-06-19T07:16:02Z</time>
      </trkpt>
      <trkpt lat="44.68858" lon="1.26874">
        <ele>179.9</ele>
        <time>2023-06-19T07:16:08Z</time>
      </trkpt>
      <trkpt lat="44.68869" lon="1.2687">
        <ele>180.38</ele>
        <time>2023-06-19T07:16:15Z</time>
      </trkpt>
      <trkpt lat="44.68879" lon="1.26866">
        <ele>181.83</ele>
        <time>2023-06-19T07:16:22Z</time>
      </trkpt>
      <trkpt lat="44.68888" lon="1.2686">
        <ele>182.79</ele>
        <time>2023-06-19T07:16:29Z</time>
      </trkpt>
      <trkpt lat="44.689" lon="1.26851">
        <ele>184.23</ele>
        <time>2023-06-19T07:16:38Z</time>
      </trkpt>
      <trkpt lat="44.68909" lon="1.26841">
        <ele>185.19</ele>
        <time>2023-06-19T07:16:47Z</time>
      </trkpt>
      <trkpt lat="44.68919" lon="1.26833">
        <ele>186.63</ele>
        <time>2023-06-19T07:16:56Z</time>
      </trkpt>
      <trkpt lat="44.68927" lon="1.26843">
        <ele>187.59</ele>
        <time>2023-06-19T07:17:04Z</time>
      </trkpt>
      <trkpt lat="44.68935" lon="1.26857">
        <ele>187.59</ele>
        <time>2023-06-19T07:17:11Z</time>
      </trkpt>
      <trkpt lat="44.68943" lon="1.2687">
        <ele>186.63</ele>
        <time>2023-06-19T07:17:19Z</time>
      </trkpt>
      <trkpt lat="44.68949" lon="1.26883">
        <ele>185.67</ele>
        <time>2023-06-19T07:17:26Z</time>
      </trkpt>
      <trkpt lat="44.68954" lon="1.26895">
        <ele>184.71</ele>
        <time>2023-06-19T07:17:33Z</time>
      </trkpt>
      <trkpt lat="44.68959" lon="1.26907">
        <ele>184.23</ele>
        <time>2023-06-19T07:17:42Z</time>
      </trkpt>
      <trkpt lat="44.68963" lon="1.26919">
        <ele>183.27</ele>
        <time>2023-06-19T07:17:50Z</time>
      </trkpt>
      <trkpt lat="44.68967" lon="1.26933">
        <ele>183.27</ele>
        <time>2023-06-19T07:17:59Z</time>
      </trkpt>
      <trkpt lat="44.68973" lon="1.26947">
        <ele>182.79</ele>
        <time>2023-06-19T07:18:09Z</time>
      </trkpt>
      <trkpt lat="44.68977" lon="1.26962">
        <ele>182.31</ele>
        <time>2023-06-19T07:18:18Z</time>
      </trkpt>
      <trkpt lat="44.68981" lon="1.26975">
        <ele>181.83</ele>
        <time>2023-06-19T07:18:26Z</time>
      </trkpt>
      <trkpt lat="44.68984" lon="1.26987">
        <ele>181.35</ele>
        <time>2023-06-19T07:18:35Z</time>
      </trkpt>
      <trkpt lat="44.68988" lon="1.27">
        <ele>180.87</ele>
        <time>2023-06-19T07:18:43Z</time>
      </trkpt>
      <trkpt lat="44.68992" lon="1.27013">
        <ele>180.38</ele>
        <time>2023-06-19T07:18:51Z</time>
      </trkpt>
      <trkpt lat="44.68996" lon="1.27026">
        <ele>179.9</ele>
        <time>2023-06-19T07:19:00Z</time>
      </trkpt>
      <trkpt lat="44.69" lon="1.27038">
        <ele>179.42</ele>
        <time>2023-06-19T07:19:09Z</time>
      </trkpt>
      <trkpt lat="44.69004" lon="1.2705">
        <ele>178.94</ele>
        <time>2023-06-19T07:19:18Z</time>
      </trkpt>
      <trkpt lat="44.69005" lon="1.27064">
        <ele>178.46</ele>
        <time>2023-06-19T07:19:29Z</time>
      </trkpt>
      <trkpt lat="44.69006" lon="1.27076">
        <ele>178.46</ele>
        <time>2023-06-19T07:19:41Z</time>
      </trkpt>
      <trkpt lat="44.69004" lon="1.27091">
        <ele>177.98</ele>
        <time>2023-06-19T07:19:54Z</time>
      </trkpt>
      <trkpt lat="44.69002" lon="1.27104">
        <ele>177.5</ele>
        <time>2023-06-19T07:20:02Z</time>
      </trkpt>
      <trkpt lat="44.68999" lon="1.27117">
        <ele>177.02</ele>
        <time>2023-06-19T07:20:11Z</time>
      </trkpt>
      <trkpt lat="44.68995" lon="1.27131">
        <ele>177.02</ele>
        <time>2023-06-19T07:20:20Z</time>
      </trkpt>
      <trkpt lat="44.68992" lon="1.27144">
        <ele>176.54</ele>
        <time>2023-06-19T07:20:29Z</time>
      </trkpt>
      <trkpt lat="44.68989" lon="1.27157">
        <ele>176.06</ele>
        <time>2023-06-19T07:20:44Z</time>
      </trkpt>
      <trkpt lat="44.68986" lon="1.27169">
        <ele>175.58</ele>
        <time>2023-06-19T07:21:04Z</time>
      </trkpt>
      <trkpt lat="44.68981" lon="1.27177">
        <ele>175.1</ele>
        <time>2023-06-19T07:21:18Z</time>
      </trkpt>
      <trkpt lat="44.68978" lon="1.2719">
        <ele>174.14</ele>
        <time>2023-06-19T07:21:26Z</time>
      </trkpt>
      <trkpt lat="44.68974" lon="1.27204">
        <ele>173.66</ele>
        <time>2023-06-19T07:21:34Z</time>
      </trkpt>
      <trkpt lat="44.6897" lon="1.27217">
        <ele>172.69</ele>
        <time>2023-06-19T07:21:42Z</time>
      </trkpt>
      <trkpt lat="44.68966" lon="1.2723">
        <ele>171.73</ele>
        <time>2023-06-19T07:21:51Z</time>
      </trkpt>
      <trkpt lat="44.68962" lon="1.27244">
        <ele>170.29</ele>
        <time>2023-06-19T07:22:00Z</time>
      </trkpt>
      <trkpt lat="44.68957" lon="1.27257">
        <ele>169.33</ele>
        <time>2023-06-19T07:22:09Z</time>
      </trkpt>
      <trkpt lat="44.68953" lon="1.27271">
        <ele>168.37</ele>
        <time>2023-06-19T07:22:18Z</time>
      </trkpt>
      <trkpt lat="44.68949" lon="1.27284">
        <ele>166.93</ele>
        <time>2023-06-19T07:22:26Z</time>
      </trkpt>
      <trkpt lat="44.68945" lon="1.27297">
        <ele>166.45</ele>
        <time>2023-06-19T07:22:35Z</time>
      </trkpt>
      <trkpt lat="44.68942" lon="1.2731">
        <ele>165.48</ele>
        <time>2023-06-19T07:22:43Z</time>
      </trkpt>
      <trkpt lat="44.68938" lon="1.27324">
        <ele>164.52</ele>
        <time>2023-06-19T07:22:52Z</time>
      </trkpt>
      <trkpt lat="44.68941" lon="1.27336">
        <ele>164.52</ele>
        <time>2023-06-19T07:23:01Z</time>
      </trkpt>
      <trkpt lat="44.68951" lon="1.27345">
        <ele>164.52</ele>
        <time>2023-06-19T07:23:10Z</time>
      </trkpt>
      <trkpt lat="44.6896" lon="1.27349">
        <ele>164.52</ele>
        <time>2023-06-19T07:23:17Z</time>
      </trkpt>
      <trkpt lat="44.68971" lon="1.27352">
        <ele>164.52</ele>
        <time>2023-06-19T07:23:25Z</time>
      </trkpt>
      <trkpt lat="44.68981" lon="1.2735">
        <ele>164.52</ele>
        <time>2023-06-19T07:23:33Z</time>
      </trkpt>
      <trkpt lat="44.68991" lon="1.27345">
        <ele>164.52</ele>
        <time>2023-06-19T07:23:49Z</time>
      </trkpt>
      <trkpt lat="44.69002" lon="1.27336">
        <ele>164.52</ele>
        <time>2023-06-19T07:23:59Z</time>
      </trkpt>
      <trkpt lat="44.69012" lon="1.27329">
        <ele>164.52</ele>
        <time>2023-06-19T07:24:09Z</time>
      </trkpt>
      <trkpt lat="44.69021" lon="1.27325">
        <ele>164.04</ele>
        <time>2023-06-19T07:24:17Z</time>
      </trkpt>
      <trkpt lat="44.69031" lon="1.2732">
        <ele>164.04</ele>
        <time>2023-06-19T07:24:25Z</time>
      </trkpt>
      <trkpt lat="44.6904" lon="1.27316">
        <ele>164.04</ele>
        <time>2023-06-19T07:24:33Z</time>
      </trkpt>
      <trkpt lat="44.69051" lon="1.27313">
        <ele>164.04</ele>
        <time>2023-06-19T07:24:41Z</time>
      </trkpt>
      <trkpt lat="44.69062" lon="1.27313">
        <ele>164.04</ele>
        <time>2023-06-19T07:24:49Z</time>
      </trkpt>
      <trkpt lat="44.69072" lon="1.27313">
        <ele>164.04</ele>
        <time>2023-06-19T07:24:56Z</time>
      </trkpt>
      <trkpt lat="44.69083" lon="1.27314">
        <ele>164.04</ele>
        <time>2023-06-19T07:25:04Z</time>
      </trkpt>
      <trkpt lat="44.69093" lon="1.27314">
        <ele>165.48</ele>
        <time>2023-06-19T07:25:13Z</time>
      </trkpt>
      <trkpt lat="44.69104" lon="1.27315">
        <ele>166.45</ele>
        <time>2023-06-19T07:25:23Z</time>
      </trkpt>
      <trkpt lat="44.69114" lon="1.27316">
        <ele>166.45</ele>
        <time>2023-06-19T07:25:32Z</time>
      </trkpt>
      <trkpt lat="44.69124" lon="1.27316">
        <ele>167.41</ele>
        <time>2023-06-19T07:25:41Z</time>
      </trkpt>
      <trkpt lat="44.69135" lon="1.27312">
        <ele>167.89</ele>
        <time>2023-06-19T07:25:51Z</time>
      </trkpt>
      <trkpt lat="44.69144" lon="1.27303">
        <ele>168.37</ele>
        <time>2023-06-19T07:26:00Z</time>
      </trkpt>
      <trkpt lat="44.69151" lon="1.27293">
        <ele>168.85</ele>
        <time>2023-06-19T07:26:09Z</time>
      </trkpt>
      <trkpt lat="44.69158" lon="1.27283">
        <ele>168.85</ele>
        <time>2023-06-19T07:26:19Z</time>
      </trkpt>
      <trkpt lat="44.69167" lon="1.27284">
        <ele>168.85</ele>
        <time>2023-06-19T07:26:29Z</time>
      </trkpt>
      <trkpt lat="44.69177" lon="1.27288">
        <ele>168.85</ele>
        <time>2023-06-19T07:26:40Z</time>
      </trkpt>
      <trkpt lat="44.69189" lon="1.27292">
        <ele>168.85</ele>
        <time>2023-06-19T07:26:51Z</time>
      </trkpt>
      <trkpt lat="44.69199" lon="1.27297">
        <ele>170.29</ele>
        <time>2023-06-19T07:27:06Z</time>
      </trkpt>
      <trkpt lat="44.69208" lon="1.27308">
        <ele>172.69</ele>
        <time>2023-06-19T07:27:21Z</time>
      </trkpt>
      <trkpt lat="44.69215" lon="1.27318">
        <ele>174.62</ele>
        <time>2023-06-19T07:27:33Z</time>
      </trkpt>
      <trkpt lat="44.69222" lon="1.27327">
        <ele>177.02</ele>
        <time>2023-06-19T07:27:49Z</time>
      </trkpt>
      <trkpt lat="44.6923" lon="1.27336">
        <ele>178.94</ele>
        <time>2023-06-19T07:28:04Z</time>
      </trkpt>
      <trkpt lat="44.69239" lon="1.27346">
        <ele>181.35</ele>
        <time>2023-06-19T07:28:21Z</time>
      </trkpt>
      <trkpt lat="44.69247" lon="1.27353">
        <ele>183.27</ele>
        <time>2023-06-19T07:28:35Z</time>
      </trkpt>
      <trkpt lat="44.69256" lon="1.27358">
        <ele>184.71</ele>
        <time>2023-06-19T07:28:49Z</time>
      </trkpt>
      <trkpt lat="44.69265" lon="1.27359">
        <ele>186.63</ele>
        <time>2023-06-19T07:29:05Z</time>
      </trkpt>
      <trkpt lat="44.69277" lon="1.27361">
        <ele>190</ele>
        <time>2023-06-19T07:29:33Z</time>
      </trkpt>
      <trkpt lat="44.69289" lon="1.27361">
        <ele>192.4</ele>
        <time>2023-06-19T07:29:54Z</time>
      </trkpt>
      <trkpt lat="44.693" lon="1.27357">
        <ele>195.28</ele>
        <time>2023-06-19T07:30:15Z</time>
      </trkpt>
      <trkpt lat="44.69314" lon="1.2735">
        <ele>198.17</ele>
        <time>2023-06-19T07:30:41Z</time>
      </trkpt>
      <trkpt lat="44.69325" lon="1.2734">
        <ele>200.57</ele>
        <time>2023-06-19T07:31:03Z</time>
      </trkpt>
      <trkpt lat="44.69339" lon="1.27326">
        <ele>203.46</ele>
        <time>2023-06-19T07:31:29Z</time>
      </trkpt>
      <trkpt lat="44.69348" lon="1.27315">
        <ele>205.38</ele>
        <time>2023-06-19T07:31:48Z</time>
      </trkpt>
      <trkpt lat="44.69357" lon="1.27302">
        <ele>207.3</ele>
        <time>2023-06-19T07:32:06Z</time>
      </trkpt>
      <trkpt lat="44.69371" lon="1.27298">
        <ele>208.26</ele>
        <time>2023-06-19T07:32:25Z</time>
      </trkpt>
      <trkpt lat="44.69381" lon="1.27307">
        <ele>209.22</ele>
        <time>2023-06-19T07:32:36Z</time>
      </trkpt>
      <trkpt lat="44.69392" lon="1.27316">
        <ele>210.19</ele>
        <time>2023-06-19T07:32:49Z</time>
      </trkpt>
      <trkpt lat="44.69404" lon="1.27325">
        <ele>211.63</ele>
        <time>2023-06-19T07:33:03Z</time>
      </trkpt>
      <trkpt lat="44.69414" lon="1.27332">
        <ele>213.07</ele>
        <time>2023-06-19T07:33:17Z</time>
      </trkpt>
      <trkpt lat="44.69425" lon="1.27339">
        <ele>214.51</ele>
        <time>2023-06-19T07:33:31Z</time>
      </trkpt>
      <trkpt lat="44.69433" lon="1.27349">
        <ele>215.47</ele>
        <time>2023-06-19T07:33:44Z</time>
      </trkpt>
      <trkpt lat="44.69441" lon="1.2736">
        <ele>217.4</ele>
        <time>2023-06-19T07:33:57Z</time>
      </trkpt>
      <trkpt lat="44.69449" lon="1.27372">
        <ele>218.36</ele>
        <time>2023-06-19T07:34:10Z</time>
      </trkpt>
      <trkpt lat="44.69455" lon="1.27386">
        <ele>219.8</ele>
        <time>2023-06-19T07:34:22Z</time>
      </trkpt>
      <trkpt lat="44.69461" lon="1.274">
        <ele>220.28</ele>
        <time>2023-06-19T07:34:34Z</time>
      </trkpt>
      <trkpt lat="44.69467" lon="1.27412">
        <ele>220.76</ele>
        <time>2023-06-19T07:34:46Z</time>
      </trkpt>
      <trkpt lat="44.69472" lon="1.27423">
        <ele>221.24</ele>
        <time>2023-06-19T07:35:05Z</time>
      </trkpt>
      <trkpt lat="44.69476" lon="1.27436">
        <ele>222.2</ele>
        <time>2023-06-19T07:37:50Z</time>
      </trkpt>
      <trkpt lat="44.69486" lon="1.27447">
        <ele>219.8</ele>
        <time>2023-06-19T07:38:06Z</time>
      </trkpt>
      <trkpt lat="44.69498" lon="1.27453">
        <ele>218.36</ele>
        <time>2023-06-19T07:38:20Z</time>
      </trkpt>
      <trkpt lat="44.69511" lon="1.27457">
        <ele>217.88</ele>
        <time>2023-06-19T07:38:33Z</time>
      </trkpt>
      <trkpt lat="44.69521" lon="1.27465">
        <ele>217.88</ele>
        <time>2023-06-19T07:38:45Z</time>
      </trkpt>
      <trkpt lat="44.69533" lon="1.27473">
        <ele>217.88</ele>
        <time>2023-06-19T07:38:57Z</time>
      </trkpt>
      <trkpt lat="44.69545" lon="1.27482">
        <ele>217.88</ele>
        <time>2023-06-19T07:39:08Z</time>
      </trkpt>
      <trkpt lat="44.69555" lon="1.2749">
        <ele>217.88</ele>
        <time>2023-06-19T07:39:19Z</time>
      </trkpt>
      <trkpt lat="44.69565" lon="1.27498">
        <ele>217.88</ele>
        <time>2023-06-19T07:39:30Z</time>
      </trkpt>
      <trkpt lat="44.69577" lon="1.27503">
        <ele>218.36</ele>
        <time>2023-06-19T07:39:43Z</time>
      </trkpt>
      <trkpt lat="44.69587" lon="1.27505">
        <ele>218.36</ele>
        <time>2023-06-19T07:39:53Z</time>
      </trkpt>
      <trkpt lat="44.696" lon="1.27505">
        <ele>217.88</ele>
        <time>2023-06-19T07:40:06Z</time>
      </trkpt>
      <trkpt lat="44.6961" lon="1.27504">
        <ele>217.4</ele>
        <time>2023-06-19T07:40:17Z</time>
      </trkpt>
      <trkpt lat="44.69623" lon="1.27501">
        <ele>216.43</ele>
        <time>2023-06-19T07:40:30Z</time>
      </trkpt>
      <trkpt lat="44.69635" lon="1.27499">
        <ele>214.51</ele>
        <time>2023-06-19T07:40:44Z</time>
      </trkpt>
      <trkpt lat="44.69648" lon="1.27499">
        <ele>212.11</ele>
        <time>2023-06-19T07:40:59Z</time>
      </trkpt>
      <trkpt lat="44.69659" lon="1.27501">
        <ele>210.67</ele>
        <time>2023-06-19T07:41:12Z</time>
      </trkpt>
      <trkpt lat="44.69672" lon="1.27502">
        <ele>208.74</ele>
        <time>2023-06-19T07:41:26Z</time>
      </trkpt>
      <trkpt lat="44.69685" lon="1.27498">
        <ele>208.26</ele>
        <time>2023-06-19T07:41:41Z</time>
      </trkpt>
      <trkpt lat="44.69698" lon="1.27493">
        <ele>206.82</ele>
        <time>2023-06-19T07:41:55Z</time>
      </trkpt>
      <trkpt lat="44.69712" lon="1.27496">
        <ele>206.82</ele>
        <time>2023-06-19T07:42:07Z</time>
      </trkpt>
      <trkpt lat="44.69725" lon="1.27496">
        <ele>206.34</ele>
        <time>2023-06-19T07:42:20Z</time>
      </trkpt>
      <trkpt lat="44.69735" lon="1.27493">
        <ele>206.34</ele>
        <time>2023-06-19T07:42:35Z</time>
      </trkpt>
      <trkpt lat="44.69747" lon="1.27486">
        <ele>206.34</ele>
        <time>2023-06-19T07:42:49Z</time>
      </trkpt>
      <trkpt lat="44.6976" lon="1.27486">
        <ele>205.86</ele>
        <time>2023-06-19T07:43:04Z</time>
      </trkpt>
      <trkpt lat="44.6977" lon="1.27495">
        <ele>205.38</ele>
        <time>2023-06-19T07:43:17Z</time>
      </trkpt>
      <trkpt lat="44.69778" lon="1.2751">
        <ele>205.38</ele>
        <time>2023-06-19T07:43:30Z</time>
      </trkpt>
      <trkpt lat="44.69789" lon="1.27518">
        <ele>207.3</ele>
        <time>2023-06-19T07:44:19Z</time>
      </trkpt>
      <trkpt lat="44.69797" lon="1.27518">
        <ele>208.74</ele>
        <time>2023-06-19T07:44:50Z</time>
      </trkpt>
      <trkpt lat="44.69806" lon="1.27525">
        <ele>210.19</ele>
        <time>2023-06-19T07:45:03Z</time>
      </trkpt>
      <trkpt lat="44.69816" lon="1.27532">
        <ele>212.11</ele>
        <time>2023-06-19T07:45:17Z</time>
      </trkpt>
      <trkpt lat="44.6983" lon="1.27541">
        <ele>214.99</ele>
        <time>2023-06-19T07:45:35Z</time>
      </trkpt>
      <trkpt lat="44.69841" lon="1.27546">
        <ele>216.91</ele>
        <time>2023-06-19T07:45:51Z</time>
      </trkpt>
      <trkpt lat="44.69854" lon="1.27551">
        <ele>218.36</ele>
        <time>2023-06-19T07:46:07Z</time>
      </trkpt>
      <trkpt lat="44.69869" lon="1.27556">
        <ele>220.28</ele>
        <time>2023-06-19T07:46:24Z</time>
      </trkpt>
      <trkpt lat="44.69882" lon="1.27561">
        <ele>222.2</ele>
        <time>2023-06-19T07:46:40Z</time>
      </trkpt>
      <trkpt lat="44.69895" lon="1.27565">
        <ele>223.64</ele>
        <time>2023-06-19T07:46:57Z</time>
      </trkpt>
      <trkpt lat="44.69907" lon="1.27572">
        <ele>225.09</ele>
        <time>2023-06-19T07:47:13Z</time>
      </trkpt>
      <trkpt lat="44.69919" lon="1.27575">
        <ele>226.53</ele>
        <time>2023-06-19T07:47:28Z</time>
      </trkpt>
      <trkpt lat="44.6993" lon="1.27575">
        <ele>228.45</ele>
        <time>2023-06-19T07:48:47Z</time>
      </trkpt>
      <trkpt lat="44.69945" lon="1.27577">
        <ele>229.89</ele>
        <time>2023-06-19T07:49:04Z</time>
      </trkpt>
      <trkpt lat="44.69961" lon="1.27578">
        <ele>231.81</ele>
        <time>2023-06-19T07:49:36Z</time>
      </trkpt>
      <trkpt lat="44.69973" lon="1.27579">
        <ele>232.78</ele>
        <time>2023-06-19T07:49:56Z</time>
      </trkpt>
      <trkpt lat="44.69989" lon="1.27574">
        <ele>234.7</ele>
        <time>2023-06-19T07:50:56Z</time>
      </trkpt>
      <trkpt lat="44.70001" lon="1.27578">
        <ele>235.18</ele>
        <time>2023-06-19T07:51:11Z</time>
      </trkpt>
      <trkpt lat="44.70015" lon="1.27579">
        <ele>236.14</ele>
        <time>2023-06-19T07:51:26Z</time>
      </trkpt>
      <trkpt lat="44.70027" lon="1.2758">
        <ele>237.1</ele>
        <time>2023-06-19T07:51:39Z</time>
      </trkpt>
      <trkpt lat="44.70039" lon="1.27581">
        <ele>238.54</ele>
        <time>2023-06-19T07:51:53Z</time>
      </trkpt>
      <trkpt lat="44.70051" lon="1.27583">
        <ele>239.51</ele>
        <time>2023-06-19T07:52:08Z</time>
      </trkpt>
      <trkpt lat="44.70065" lon="1.27582">
        <ele>240.47</ele>
        <time>2023-06-19T07:52:26Z</time>
      </trkpt>
      <trkpt lat="44.70079" lon="1.27583">
        <ele>241.43</ele>
        <time>2023-06-19T07:52:41Z</time>
      </trkpt>
      <trkpt lat="44.70091" lon="1.27584">
        <ele>242.87</ele>
        <time>2023-06-19T07:52:54Z</time>
      </trkpt>
      <trkpt lat="44.70104" lon="1.27588">
        <ele>243.35</ele>
        <time>2023-06-19T07:53:08Z</time>
      </trkpt>
      <trkpt lat="44.70118" lon="1.27593">
        <ele>244.79</ele>
        <time>2023-06-19T07:53:21Z</time>
      </trkpt>
      <trkpt lat="44.7013" lon="1.27599">
        <ele>245.27</ele>
        <time>2023-06-19T07:53:34Z</time>
      </trkpt>
      <trkpt lat="44.7014" lon="1.27604">
        <ele>245.75</ele>
        <time>2023-06-19T07:53:45Z</time>
      </trkpt>
      <trkpt lat="44.70151" lon="1.27613">
        <ele>245.75</ele>
        <time>2023-06-19T07:53:57Z</time>
      </trkpt>
      <trkpt lat="44.70162" lon="1.27619">
        <ele>246.23</ele>
        <time>2023-06-19T07:54:06Z</time>
      </trkpt>
      <trkpt lat="44.70172" lon="1.27624">
        <ele>246.23</ele>
        <time>2023-06-19T07:54:16Z</time>
      </trkpt>
      <trkpt lat="44.70182" lon="1.27631">
        <ele>247.2</ele>
        <time>2023-06-19T07:54:28Z</time>
      </trkpt>
      <trkpt lat="44.70192" lon="1.27638">
        <ele>247.68</ele>
        <time>2023-06-19T07:54:39Z</time>
      </trkpt>
      <trkpt lat="44.70203" lon="1.27645">
        <ele>248.16</ele>
        <time>2023-06-19T07:54:51Z</time>
      </trkpt>
      <trkpt lat="44.70214" lon="1.27652">
        <ele>248.16</ele>
        <time>2023-06-19T07:55:01Z</time>
      </trkpt>
      <trkpt lat="44.70224" lon="1.2766">
        <ele>248.16</ele>
        <time>2023-06-19T07:55:11Z</time>
      </trkpt>
      <trkpt lat="44.70234" lon="1.27667">
        <ele>248.16</ele>
        <time>2023-06-19T07:55:21Z</time>
      </trkpt>
      <trkpt lat="44.70243" lon="1.27674">
        <ele>248.16</ele>
        <time>2023-06-19T07:55:30Z</time>
      </trkpt>
      <trkpt lat="44.70253" lon="1.27682">
        <ele>248.16</ele>
        <time>2023-06-19T07:55:41Z</time>
      </trkpt>
      <trkpt lat="44.70263" lon="1.27688">
        <ele>248.64</ele>
        <time>2023-06-19T07:55:51Z</time>
      </trkpt>
      <trkpt lat="44.7027" lon="1.27702">
        <ele>248.64</ele>
        <time>2023-06-19T07:56:01Z</time>
      </trkpt>
      <trkpt lat="44.70275" lon="1.27717">
        <ele>247.68</ele>
        <time>2023-06-19T07:56:12Z</time>
      </trkpt>
      <trkpt lat="44.7028" lon="1.27731">
        <ele>246.72</ele>
        <time>2023-06-19T07:56:23Z</time>
      </trkpt>
      <trkpt lat="44.70285" lon="1.27747">
        <ele>245.75</ele>
        <time>2023-06-19T07:56:34Z</time>
      </trkpt>
      <trkpt lat="44.7029" lon="1.27762">
        <ele>245.27</ele>
        <time>2023-06-19T07:56:45Z</time>
      </trkpt>
      <trkpt lat="44.70294" lon="1.27778">
        <ele>244.79</ele>
        <time>2023-06-19T07:56:56Z</time>
      </trkpt>
      <trkpt lat="44.70299" lon="1.27795">
        <ele>244.79</ele>
        <time>2023-06-19T07:57:07Z</time>
      </trkpt>
      <trkpt lat="44.70303" lon="1.27812">
        <ele>244.79</ele>
        <time>2023-06-19T07:57:18Z</time>
      </trkpt>
      <trkpt lat="44.70306" lon="1.27828">
        <ele>244.31</ele>
        <time>2023-06-19T07:57:28Z</time>
      </trkpt>
      <trkpt lat="44.70308" lon="1.27845">
        <ele>244.31</ele>
        <time>2023-06-19T07:57:40Z</time>
      </trkpt>
      <trkpt lat="44.70309" lon="1.27865">
        <ele>244.31</ele>
        <time>2023-06-19T07:57:52Z</time>
      </trkpt>
      <trkpt lat="44.70311" lon="1.27884">
        <ele>243.83</ele>
        <time>2023-06-19T07:58:03Z</time>
      </trkpt>
      <trkpt lat="44.70314" lon="1.27902">
        <ele>243.83</ele>
        <time>2023-06-19T07:58:13Z</time>
      </trkpt>
      <trkpt lat="44.7032" lon="1.27917">
        <ele>243.35</ele>
        <time>2023-06-19T07:58:23Z</time>
      </trkpt>
      <trkpt lat="44.70328" lon="1.27926">
        <ele>242.87</ele>
        <time>2023-06-19T07:58:32Z</time>
      </trkpt>
      <trkpt lat="44.70337" lon="1.27935">
        <ele>241.91</ele>
        <time>2023-06-19T07:58:42Z</time>
      </trkpt>
      <trkpt lat="44.70346" lon="1.27946">
        <ele>240.47</ele>
        <time>2023-06-19T07:58:53Z</time>
      </trkpt>
      <trkpt lat="44.70349" lon="1.27961">
        <ele>239.51</ele>
        <time>2023-06-19T07:59:03Z</time>
      </trkpt>
      <trkpt lat="44.70348" lon="1.27976">
        <ele>238.06</ele>
        <time>2023-06-19T07:59:13Z</time>
      </trkpt>
      <trkpt lat="44.70344" lon="1.2799">
        <ele>237.58</ele>
        <time>2023-06-19T07:59:24Z</time>
      </trkpt>
      <trkpt lat="44.70337" lon="1.28004">
        <ele>236.62</ele>
        <time>2023-06-19T07:59:35Z</time>
      </trkpt>
      <trkpt lat="44.70344" lon="1.28011">
        <ele>235.18</ele>
        <time>2023-06-19T07:59:46Z</time>
      </trkpt>
      <trkpt lat="44.70354" lon="1.28014">
        <ele>234.22</ele>
        <time>2023-06-19T07:59:56Z</time>
      </trkpt>
      <trkpt lat="44.70363" lon="1.28013">
        <ele>234.22</ele>
        <time>2023-06-19T08:00:05Z</time>
      </trkpt>
      <trkpt lat="44.70374" lon="1.28014">
        <ele>233.26</ele>
        <time>2023-06-19T08:00:16Z</time>
      </trkpt>
      <trkpt lat="44.70385" lon="1.28015">
        <ele>233.26</ele>
        <time>2023-06-19T08:00:27Z</time>
      </trkpt>
      <trkpt lat="44.70397" lon="1.28012">
        <ele>232.3</ele>
        <time>2023-06-19T08:00:38Z</time>
      </trkpt>
      <trkpt lat="44.70393" lon="1.28002">
        <ele>232.3</ele>
        <time>2023-06-19T08:00:52Z</time>
      </trkpt>
      <trkpt lat="44.704" lon="1.28008">
        <ele>232.78</ele>
        <time>2023-06-19T08:02:22Z</time>
      </trkpt>
      <trkpt lat="44.70409" lon="1.28013">
        <ele>231.81</ele>
        <time>2023-06-19T08:02:32Z</time>
      </trkpt>
      <trkpt lat="44.70419" lon="1.28014">
        <ele>231.33</ele>
        <time>2023-06-19T08:02:42Z</time>
      </trkpt>
      <trkpt lat="44.70438" lon="1.28013">
        <ele>231.33</ele>
        <time>2023-06-19T08:04:10Z</time>
      </trkpt>
      <trkpt lat="44.70447" lon="1.28018">
        <ele>230.85</ele>
        <time>2023-06-19T08:04:19Z</time>
      </trkpt>
      <trkpt lat="44.70452" lon="1.28029">
        <ele>230.37</ele>
        <time>2023-06-19T08:04:28Z</time>
      </trkpt>
      <trkpt lat="44.70452" lon="1.28044">
        <ele>230.37</ele>
        <time>2023-06-19T08:04:37Z</time>
      </trkpt>
      <trkpt lat="44.70453" lon="1.28057">
        <ele>229.89</ele>
        <time>2023-06-19T08:04:45Z</time>
      </trkpt>
      <trkpt lat="44.70452" lon="1.28074">
        <ele>229.89</ele>
        <time>2023-06-19T08:04:54Z</time>
      </trkpt>
      <trkpt lat="44.70448" lon="1.28089">
        <ele>229.89</ele>
        <time>2023-06-19T08:05:03Z</time>
      </trkpt>
      <trkpt lat="44.70443" lon="1.28105">
        <ele>229.41</ele>
        <time>2023-06-19T08:05:13Z</time>
      </trkpt>
      <trkpt lat="44.70435" lon="1.28121">
        <ele>229.41</ele>
        <time>2023-06-19T08:05:23Z</time>
      </trkpt>
      <trkpt lat="44.7043" lon="1.28135">
        <ele>228.93</ele>
        <time>2023-06-19T08:05:31Z</time>
      </trkpt>
      <trkpt lat="44.70431" lon="1.2815">
        <ele>228.45</ele>
        <time>2023-06-19T08:05:39Z</time>
      </trkpt>
      <trkpt lat="44.70435" lon="1.28165">
        <ele>227.49</ele>
        <time>2023-06-19T08:05:47Z</time>
      </trkpt>
      <trkpt lat="44.7044" lon="1.28178">
        <ele>227.01</ele>
        <time>2023-06-19T08:05:55Z</time>
      </trkpt>
      <trkpt lat="44.70445" lon="1.28191">
        <ele>226.53</ele>
        <time>2023-06-19T08:06:04Z</time>
      </trkpt>
      <trkpt lat="44.70449" lon="1.28204">
        <ele>226.05</ele>
        <time>2023-06-19T08:06:11Z</time>
      </trkpt>
      <trkpt lat="44.70454" lon="1.28218">
        <ele>225.09</ele>
        <time>2023-06-19T08:06:18Z</time>
      </trkpt>
      <trkpt lat="44.7046" lon="1.28231">
        <ele>224.61</ele>
        <time>2023-06-19T08:06:26Z</time>
      </trkpt>
      <trkpt lat="44.70465" lon="1.28244">
        <ele>224.12</ele>
        <time>2023-06-19T08:06:33Z</time>
      </trkpt>
      <trkpt lat="44.70468" lon="1.28257">
        <ele>223.64</ele>
        <time>2023-06-19T08:06:41Z</time>
      </trkpt>
      <trkpt lat="44.70463" lon="1.28269">
        <ele>223.16</ele>
        <time>2023-06-19T08:06:49Z</time>
      </trkpt>
      <trkpt lat="44.70455" lon="1.28281">
        <ele>222.68</ele>
        <time>2023-06-19T08:06:59Z</time>
      </trkpt>
      <trkpt lat="44.70446" lon="1.28294">
        <ele>221.72</ele>
        <time>2023-06-19T08:07:10Z</time>
      </trkpt>
      <trkpt lat="44.70439" lon="1.28306">
        <ele>221.24</ele>
        <time>2023-06-19T08:07:21Z</time>
      </trkpt>
      <trkpt lat="44.7043" lon="1.28318">
        <ele>220.28</ele>
        <time>2023-06-19T08:07:33Z</time>
      </trkpt>
      <trkpt lat="44.70422" lon="1.28331">
        <ele>218.36</ele>
        <time>2023-06-19T08:07:45Z</time>
      </trkpt>
      <trkpt lat="44.70415" lon="1.28323">
        <ele>218.36</ele>
        <time>2023-06-19T08:07:58Z</time>
      </trkpt>
      <trkpt lat="44.70412" lon="1.28322">
        <ele>218.36</ele>
        <time>2023-06-19T08:09:15Z</time>
      </trkpt>
      <trkpt lat="44.70422" lon="1.28335">
        <ele>218.36</ele>
        <time>2023-06-19T08:09:29Z</time>
      </trkpt>
      <trkpt lat="44.70414" lon="1.28348">
        <ele>217.4</ele>
        <time>2023-06-19T08:09:41Z</time>
      </trkpt>
      <trkpt lat="44.70408" lon="1.28359">
        <ele>214.99</ele>
        <time>2023-06-19T08:09:52Z</time>
      </trkpt>
      <trkpt lat="44.70401" lon="1.28372">
        <ele>213.07</ele>
        <time>2023-06-19T08:10:03Z</time>
      </trkpt>
      <trkpt lat="44.70398" lon="1.28386">
        <ele>212.11</ele>
        <time>2023-06-19T08:10:12Z</time>
      </trkpt>
      <trkpt lat="44.704" lon="1.28402">
        <ele>211.15</ele>
        <time>2023-06-19T08:10:22Z</time>
      </trkpt>
      <trkpt lat="44.70401" lon="1.28419">
        <ele>211.15</ele>
        <time>2023-06-19T08:10:31Z</time>
      </trkpt>
      <trkpt lat="44.70403" lon="1.28435">
        <ele>210.19</ele>
        <time>2023-06-19T08:10:44Z</time>
      </trkpt>
      <trkpt lat="44.70405" lon="1.28453">
        <ele>209.7</ele>
        <time>2023-06-19T08:10:55Z</time>
      </trkpt>
      <trkpt lat="44.70408" lon="1.2847">
        <ele>209.7</ele>
        <time>2023-06-19T08:11:03Z</time>
      </trkpt>
      <trkpt lat="44.70411" lon="1.28486">
        <ele>209.7</ele>
        <time>2023-06-19T08:11:10Z</time>
      </trkpt>
      <trkpt lat="44.70415" lon="1.285">
        <ele>209.7</ele>
        <time>2023-06-19T08:11:18Z</time>
      </trkpt>
      <trkpt lat="44.7042" lon="1.28513">
        <ele>210.19</ele>
        <time>2023-06-19T08:11:27Z</time>
      </trkpt>
      <trkpt lat="44.70424" lon="1.28531">
        <ele>209.22</ele>
        <time>2023-06-19T08:11:36Z</time>
      </trkpt>
      <trkpt lat="44.70419" lon="1.28544">
        <ele>209.22</ele>
        <time>2023-06-19T08:11:45Z</time>
      </trkpt>
      <trkpt lat="44.70411" lon="1.28556">
        <ele>209.22</ele>
        <time>2023-06-19T08:11:53Z</time>
      </trkpt>
      <trkpt lat="44.70401" lon="1.28561">
        <ele>209.22</ele>
        <time>2023-06-19T08:12:01Z</time>
      </trkpt>
      <trkpt lat="44.7039" lon="1.28564">
        <ele>209.22</ele>
        <time>2023-06-19T08:12:09Z</time>
      </trkpt>
      <trkpt lat="44.70379" lon="1.28561">
        <ele>209.22</ele>
        <time>2023-06-19T08:12:17Z</time>
      </trkpt>
      <trkpt lat="44.70369" lon="1.28559">
        <ele>209.22</ele>
        <time>2023-06-19T08:12:24Z</time>
      </trkpt>
      <trkpt lat="44.70359" lon="1.28557">
        <ele>208.74</ele>
        <time>2023-06-19T08:12:33Z</time>
      </trkpt>
      <trkpt lat="44.70349" lon="1.28556">
        <ele>207.3</ele>
        <time>2023-06-19T08:12:43Z</time>
      </trkpt>
      <trkpt lat="44.70338" lon="1.28552">
        <ele>205.86</ele>
        <time>2023-06-19T08:12:54Z</time>
      </trkpt>
      <trkpt lat="44.70327" lon="1.28549">
        <ele>204.42</ele>
        <time>2023-06-19T08:13:05Z</time>
      </trkpt>
      <trkpt lat="44.70318" lon="1.28545">
        <ele>202.98</ele>
        <time>2023-06-19T08:13:17Z</time>
      </trkpt>
      <trkpt lat="44.70305" lon="1.28543">
        <ele>201.05</ele>
        <time>2023-06-19T08:13:42Z</time>
      </trkpt>
      <trkpt lat="44.70294" lon="1.28541">
        <ele>199.13</ele>
        <time>2023-06-19T08:13:52Z</time>
      </trkpt>
      <trkpt lat="44.70283" lon="1.28543">
        <ele>198.17</ele>
        <time>2023-06-19T08:14:01Z</time>
      </trkpt>
      <trkpt lat="44.70271" lon="1.28544">
        <ele>197.69</ele>
        <time>2023-06-19T08:14:10Z</time>
      </trkpt>
      <trkpt lat="44.7026" lon="1.28546">
        <ele>197.21</ele>
        <time>2023-06-19T08:14:18Z</time>
      </trkpt>
      <trkpt lat="44.7025" lon="1.28549">
        <ele>196.73</ele>
        <time>2023-06-19T08:14:27Z</time>
      </trkpt>
      <trkpt lat="44.70236" lon="1.28553">
        <ele>196.25</ele>
        <time>2023-06-19T08:14:38Z</time>
      </trkpt>
      <trkpt lat="44.70226" lon="1.28557">
        <ele>195.77</ele>
        <time>2023-06-19T08:14:46Z</time>
      </trkpt>
      <trkpt lat="44.70215" lon="1.2856">
        <ele>195.77</ele>
        <time>2023-06-19T08:14:55Z</time>
      </trkpt>
      <trkpt lat="44.70205" lon="1.28558">
        <ele>197.21</ele>
        <time>2023-06-19T08:15:03Z</time>
      </trkpt>
      <trkpt lat="44.70194" lon="1.28553">
        <ele>198.17</ele>
        <time>2023-06-19T08:15:13Z</time>
      </trkpt>
      <trkpt lat="44.70179" lon="1.28547">
        <ele>200.09</ele>
        <time>2023-06-19T08:15:29Z</time>
      </trkpt>
      <trkpt lat="44.70163" lon="1.28542">
        <ele>202.01</ele>
        <time>2023-06-19T08:15:44Z</time>
      </trkpt>
      <trkpt lat="44.7014" lon="1.28538">
        <ele>205.38</ele>
        <time>2023-06-19T08:16:09Z</time>
      </trkpt>
      <trkpt lat="44.70124" lon="1.28534">
        <ele>207.3</ele>
        <time>2023-06-19T08:16:32Z</time>
      </trkpt>
      <trkpt lat="44.70112" lon="1.28542">
        <ele>209.22</ele>
        <time>2023-06-19T08:16:50Z</time>
      </trkpt>
      <trkpt lat="44.70105" lon="1.28558">
        <ele>211.15</ele>
        <time>2023-06-19T08:17:08Z</time>
      </trkpt>
      <trkpt lat="44.7009" lon="1.28568">
        <ele>213.55</ele>
        <time>2023-06-19T08:17:29Z</time>
      </trkpt>
      <trkpt lat="44.70072" lon="1.28566">
        <ele>216.43</ele>
        <time>2023-06-19T08:17:55Z</time>
      </trkpt>
      <trkpt lat="44.70059" lon="1.28565">
        <ele>218.36</ele>
        <time>2023-06-19T08:18:11Z</time>
      </trkpt>
      <trkpt lat="44.70045" lon="1.28566">
        <ele>220.76</ele>
        <time>2023-06-19T08:18:30Z</time>
      </trkpt>
      <trkpt lat="44.70027" lon="1.28564">
        <ele>223.16</ele>
        <time>2023-06-19T08:18:52Z</time>
      </trkpt>
      <trkpt lat="44.70013" lon="1.28561">
        <ele>225.57</ele>
        <time>2023-06-19T08:19:12Z</time>
      </trkpt>
      <trkpt lat="44.70001" lon="1.28555">
        <ele>226.53</ele>
        <time>2023-06-19T08:19:28Z</time>
      </trkpt>
      <trkpt lat="44.69988" lon="1.28548">
        <ele>227.97</ele>
        <time>2023-06-19T08:19:44Z</time>
      </trkpt>
      <trkpt lat="44.69973" lon="1.28547">
        <ele>228.45</ele>
        <time>2023-06-19T08:20:46Z</time>
      </trkpt>
      <trkpt lat="44.69973" lon="1.28551">
        <ele>228.45</ele>
        <time>2023-06-19T08:22:34Z</time>
      </trkpt>
      <trkpt lat="44.69965" lon="1.28558">
        <ele>228.45</ele>
        <time>2023-06-19T08:23:05Z</time>
      </trkpt>
      <trkpt lat="44.69965" lon="1.28556">
        <ele>229.89</ele>
        <time>2023-06-19T08:24:55Z</time>
      </trkpt>
      <trkpt lat="44.69963" lon="1.28565">
        <ele>229.41</ele>
        <time>2023-06-19T08:26:51Z</time>
      </trkpt>
      <trkpt lat="44.69956" lon="1.28575">
        <ele>229.41</ele>
        <time>2023-06-19T08:27:01Z</time>
      </trkpt>
      <trkpt lat="44.69947" lon="1.28584">
        <ele>230.37</ele>
        <time>2023-06-19T08:27:11Z</time>
      </trkpt>
      <trkpt lat="44.6994" lon="1.28591">
        <ele>230.85</ele>
        <time>2023-06-19T08:27:22Z</time>
      </trkpt>
      <trkpt lat="44.69933" lon="1.286">
        <ele>230.85</ele>
        <time>2023-06-19T08:27:32Z</time>
      </trkpt>
      <trkpt lat="44.69927" lon="1.2861">
        <ele>230.85</ele>
        <time>2023-06-19T08:27:42Z</time>
      </trkpt>
      <trkpt lat="44.69923" lon="1.28623">
        <ele>230.85</ele>
        <time>2023-06-19T08:27:52Z</time>
      </trkpt>
      <trkpt lat="44.69922" lon="1.28634">
        <ele>230.85</ele>
        <time>2023-06-19T08:28:33Z</time>
      </trkpt>
      <trkpt lat="44.6993" lon="1.28644">
        <ele>231.33</ele>
        <time>2023-06-19T08:28:43Z</time>
      </trkpt>
      <trkpt lat="44.69935" lon="1.28655">
        <ele>231.33</ele>
        <time>2023-06-19T08:28:54Z</time>
      </trkpt>
      <trkpt lat="44.69935" lon="1.28672">
        <ele>231.81</ele>
        <time>2023-06-19T08:29:33Z</time>
      </trkpt>
      <trkpt lat="44.69931" lon="1.28683">
        <ele>231.81</ele>
        <time>2023-06-19T08:30:10Z</time>
      </trkpt>
      <trkpt lat="44.69929" lon="1.28692">
        <ele>230.85</ele>
        <time>2023-06-19T08:30:35Z</time>
      </trkpt>
      <trkpt lat="44.69926" lon="1.28694">
        <ele>231.33</ele>
        <time>2023-06-19T08:31:16Z</time>
      </trkpt>
      <trkpt lat="44.6993" lon="1.28695">
        <ele>231.33</ele>
        <time>2023-06-19T08:31:33Z</time>
      </trkpt>
      <trkpt lat="44.69938" lon="1.28699">
        <ele>230.85</ele>
        <time>2023-06-19T08:31:42Z</time>
      </trkpt>
      <trkpt lat="44.69948" lon="1.287">
        <ele>230.37</ele>
        <time>2023-06-19T08:31:52Z</time>
      </trkpt>
      <trkpt lat="44.69958" lon="1.28698">
        <ele>229.89</ele>
        <time>2023-06-19T08:32:03Z</time>
      </trkpt>
      <trkpt lat="44.69967" lon="1.28692">
        <ele>229.41</ele>
        <time>2023-06-19T08:32:13Z</time>
      </trkpt>
      <trkpt lat="44.69972" lon="1.28682">
        <ele>228.93</ele>
        <time>2023-06-19T08:32:29Z</time>
      </trkpt>
      <trkpt lat="44.69972" lon="1.28671">
        <ele>230.37</ele>
        <time>2023-06-19T08:34:24Z</time>
      </trkpt>
      <trkpt lat="44.69973" lon="1.28687">
        <ele>229.41</ele>
        <time>2023-06-19T08:34:34Z</time>
      </trkpt>
      <trkpt lat="44.69964" lon="1.28696">
        <ele>229.41</ele>
        <time>2023-06-19T08:34:45Z</time>
      </trkpt>
      <trkpt lat="44.69953" lon="1.28698">
        <ele>230.85</ele>
        <time>2023-06-19T08:34:58Z</time>
      </trkpt>
      <trkpt lat="44.69943" lon="1.28703">
        <ele>230.85</ele>
        <time>2023-06-19T08:35:07Z</time>
      </trkpt>
      <trkpt lat="44.69931" lon="1.28701">
        <ele>231.81</ele>
        <time>2023-06-19T08:35:22Z</time>
      </trkpt>
      <trkpt lat="44.69923" lon="1.28698">
        <ele>232.3</ele>
        <time>2023-06-19T08:35:42Z</time>
      </trkpt>
      <trkpt lat="44.69917" lon="1.28703">
        <ele>232.3</ele>
        <time>2023-06-19T08:36:08Z</time>
      </trkpt>
      <trkpt lat="44.69909" lon="1.28713">
        <ele>232.78</ele>
        <time>2023-06-19T08:36:24Z</time>
      </trkpt>
      <trkpt lat="44.69905" lon="1.28721">
        <ele>232.78</ele>
        <time>2023-06-19T08:36:38Z</time>
      </trkpt>
      <trkpt lat="44.69901" lon="1.28732">
        <ele>231.33</ele>
        <time>2023-06-19T08:36:48Z</time>
      </trkpt>
      <trkpt lat="44.69897" lon="1.28745">
        <ele>231.33</ele>
        <time>2023-06-19T08:36:57Z</time>
      </trkpt>
      <trkpt lat="44.69891" lon="1.28759">
        <ele>230.85</ele>
        <time>2023-06-19T08:37:06Z</time>
      </trkpt>
      <trkpt lat="44.69886" lon="1.28774">
        <ele>230.37</ele>
        <time>2023-06-19T08:37:18Z</time>
      </trkpt>
      <trkpt lat="44.69884" lon="1.2879">
        <ele>230.37</ele>
        <time>2023-06-19T08:37:37Z</time>
      </trkpt>
      <trkpt lat="44.6988" lon="1.28806">
        <ele>231.33</ele>
        <time>2023-06-19T08:37:51Z</time>
      </trkpt>
      <trkpt lat="44.69877" lon="1.28822">
        <ele>231.33</ele>
        <time>2023-06-19T08:38:12Z</time>
      </trkpt>
      <trkpt lat="44.69875" lon="1.28837">
        <ele>231.81</ele>
        <time>2023-06-19T08:38:24Z</time>
      </trkpt>
      <trkpt lat="44.69872" lon="1.28852">
        <ele>232.3</ele>
        <time>2023-06-19T08:38:36Z</time>
      </trkpt>
      <trkpt lat="44.69871" lon="1.28868">
        <ele>232.3</ele>
        <time>2023-06-19T08:38:48Z</time>
      </trkpt>
      <trkpt lat="44.69864" lon="1.28886">
        <ele>232.78</ele>
        <time>2023-06-19T08:39:00Z</time>
      </trkpt>
      <trkpt lat="44.69853" lon="1.28885">
        <ele>232.78</ele>
        <time>2023-06-19T08:39:12Z</time>
      </trkpt>
      <trkpt lat="44.69842" lon="1.28882">
        <ele>232.78</ele>
        <time>2023-06-19T08:39:24Z</time>
      </trkpt>
      <trkpt lat="44.6983" lon="1.28879">
        <ele>230.37</ele>
        <time>2023-06-19T08:39:34Z</time>
      </trkpt>
      <trkpt lat="44.69826" lon="1.28892">
        <ele>230.37</ele>
        <time>2023-06-19T08:39:45Z</time>
      </trkpt>
      <trkpt lat="44.69822" lon="1.28906">
        <ele>230.85</ele>
        <time>2023-06-19T08:39:56Z</time>
      </trkpt>
      <trkpt lat="44.69818" lon="1.28922">
        <ele>230.85</ele>
        <time>2023-06-19T08:40:07Z</time>
      </trkpt>
      <trkpt lat="44.69811" lon="1.28944">
        <ele>230.85</ele>
        <time>2023-06-19T08:40:25Z</time>
      </trkpt>
      <trkpt lat="44.69801" lon="1.28972">
        <ele>233.26</ele>
        <time>2023-06-19T08:40:46Z</time>
      </trkpt>
      <trkpt lat="44.69793" lon="1.28993">
        <ele>233.74</ele>
        <time>2023-06-19T08:41:04Z</time>
      </trkpt>
      <trkpt lat="44.69784" lon="1.29008">
        <ele>233.74</ele>
        <time>2023-06-19T08:41:16Z</time>
      </trkpt>
      <trkpt lat="44.69775" lon="1.29024">
        <ele>233.74</ele>
        <time>2023-06-19T08:41:31Z</time>
      </trkpt>
      <trkpt lat="44.69767" lon="1.29041">
        <ele>234.22</ele>
        <time>2023-06-19T08:41:50Z</time>
      </trkpt>
      <trkpt lat="44.69759" lon="1.29055">
        <ele>234.22</ele>
        <time>2023-06-19T08:42:06Z</time>
      </trkpt>
      <trkpt lat="44.69752" lon="1.29069">
        <ele>235.18</ele>
        <time>2023-06-19T08:42:18Z</time>
      </trkpt>
      <trkpt lat="44.69742" lon="1.29087">
        <ele>235.18</ele>
        <time>2023-06-19T08:42:33Z</time>
      </trkpt>
      <trkpt lat="44.69729" lon="1.29087">
        <ele>233.74</ele>
        <time>2023-06-19T08:43:10Z</time>
      </trkpt>
      <trkpt lat="44.6972" lon="1.29074">
        <ele>232.78</ele>
        <time>2023-06-19T08:43:35Z</time>
      </trkpt>
      <trkpt lat="44.69714" lon="1.29062">
        <ele>230.85</ele>
        <time>2023-06-19T08:44:11Z</time>
      </trkpt>
      <trkpt lat="44.69712" lon="1.2905">
        <ele>230.37</ele>
        <time>2023-06-19T08:44:23Z</time>
      </trkpt>
      <trkpt lat="44.69711" lon="1.29038">
        <ele>228.93</ele>
        <time>2023-06-19T08:44:34Z</time>
      </trkpt>
      <trkpt lat="44.6971" lon="1.29023">
        <ele>227.49</ele>
        <time>2023-06-19T08:44:47Z</time>
      </trkpt>
      <trkpt lat="44.69706" lon="1.29009">
        <ele>225.57</ele>
        <time>2023-06-19T08:44:59Z</time>
      </trkpt>
      <trkpt lat="44.69702" lon="1.28996">
        <ele>224.12</ele>
        <time>2023-06-19T08:45:09Z</time>
      </trkpt>
      <trkpt lat="44.69695" lon="1.28986">
        <ele>223.16</ele>
        <time>2023-06-19T08:45:18Z</time>
      </trkpt>
      <trkpt lat="44.69687" lon="1.28977">
        <ele>221.24</ele>
        <time>2023-06-19T08:45:32Z</time>
      </trkpt>
      <trkpt lat="44.69687" lon="1.28978">
        <ele>220.76</ele>
        <time>2023-06-19T08:46:05Z</time>
      </trkpt>
      <trkpt lat="44.69688" lon="1.28965">
        <ele>220.76</ele>
        <time>2023-06-19T08:46:28Z</time>
      </trkpt>
      <trkpt lat="44.69691" lon="1.28953">
        <ele>218.84</ele>
        <time>2023-06-19T08:47:09Z</time>
      </trkpt>
      <trkpt lat="44.69685" lon="1.28944">
        <ele>217.4</ele>
        <time>2023-06-19T08:47:21Z</time>
      </trkpt>
      <trkpt lat="44.69676" lon="1.28933">
        <ele>215.95</ele>
        <time>2023-06-19T08:47:34Z</time>
      </trkpt>
      <trkpt lat="44.6967" lon="1.28921">
        <ele>214.03</ele>
        <time>2023-06-19T08:47:46Z</time>
      </trkpt>
      <trkpt lat="44.69659" lon="1.28913">
        <ele>212.11</ele>
        <time>2023-06-19T08:48:01Z</time>
      </trkpt>
      <trkpt lat="44.6965" lon="1.28904">
        <ele>210.67</ele>
        <time>2023-06-19T08:48:13Z</time>
      </trkpt>
      <trkpt lat="44.69641" lon="1.28897">
        <ele>208.74</ele>
        <time>2023-06-19T08:48:24Z</time>
      </trkpt>
      <trkpt lat="44.69631" lon="1.28895">
        <ele>207.3</ele>
        <time>2023-06-19T08:48:35Z</time>
      </trkpt>
      <trkpt lat="44.69623" lon="1.28885">
        <ele>205.86</ele>
        <time>2023-06-19T08:48:46Z</time>
      </trkpt>
      <trkpt lat="44.69614" lon="1.28877">
        <ele>203.46</ele>
        <time>2023-06-19T08:48:58Z</time>
      </trkpt>
      <trkpt lat="44.69606" lon="1.28872">
        <ele>201.53</ele>
        <time>2023-06-19T08:49:11Z</time>
      </trkpt>
      <trkpt lat="44.69596" lon="1.28871">
        <ele>198.65</ele>
        <time>2023-06-19T08:49:23Z</time>
      </trkpt>
      <trkpt lat="44.69587" lon="1.28878">
        <ele>197.69</ele>
        <time>2023-06-19T08:49:35Z</time>
      </trkpt>
      <trkpt lat="44.6959" lon="1.28873">
        <ele>196.73</ele>
        <time>2023-06-19T08:50:01Z</time>
      </trkpt>
      <trkpt lat="44.69583" lon="1.28878">
        <ele>197.21</ele>
        <time>2023-06-19T08:51:14Z</time>
      </trkpt>
      <trkpt lat="44.69592" lon="1.28863">
        <ele>197.21</ele>
        <time>2023-06-19T08:51:51Z</time>
      </trkpt>
      <trkpt lat="44.69589" lon="1.28841">
        <ele>194.8</ele>
        <time>2023-06-19T08:52:27Z</time>
      </trkpt>
      <trkpt lat="44.69591" lon="1.28828">
        <ele>192.4</ele>
        <time>2023-06-19T08:52:39Z</time>
      </trkpt>
      <trkpt lat="44.69593" lon="1.28811">
        <ele>193.84</ele>
        <time>2023-06-19T08:52:55Z</time>
      </trkpt>
      <trkpt lat="44.69599" lon="1.28793">
        <ele>195.77</ele>
        <time>2023-06-19T08:53:14Z</time>
      </trkpt>
      <trkpt lat="44.69603" lon="1.28775">
        <ele>196.25</ele>
        <time>2023-06-19T08:53:30Z</time>
      </trkpt>
      <trkpt lat="44.6961" lon="1.28764">
        <ele>197.69</ele>
        <time>2023-06-19T08:53:59Z</time>
      </trkpt>
      <trkpt lat="44.69613" lon="1.28751">
        <ele>198.65</ele>
        <time>2023-06-19T08:54:10Z</time>
      </trkpt>
      <trkpt lat="44.69621" lon="1.2874">
        <ele>200.57</ele>
        <time>2023-06-19T08:54:24Z</time>
      </trkpt>
      <trkpt lat="44.69626" lon="1.2873">
        <ele>201.53</ele>
        <time>2023-06-19T08:54:48Z</time>
      </trkpt>
      <trkpt lat="44.69629" lon="1.28718">
        <ele>202.01</ele>
        <time>2023-06-19T08:54:58Z</time>
      </trkpt>
      <trkpt lat="44.69637" lon="1.28709">
        <ele>203.46</ele>
        <time>2023-06-19T08:55:10Z</time>
      </trkpt>
      <trkpt lat="44.69645" lon="1.28703">
        <ele>204.42</ele>
        <time>2023-06-19T08:55:23Z</time>
      </trkpt>
      <trkpt lat="44.69654" lon="1.28698">
        <ele>204.9</ele>
        <time>2023-06-19T08:55:38Z</time>
      </trkpt>
      <trkpt lat="44.69663" lon="1.28703">
        <ele>206.34</ele>
        <time>2023-06-19T08:56:11Z</time>
      </trkpt>
      <trkpt lat="44.69677" lon="1.28699">
        <ele>207.3</ele>
        <time>2023-06-19T08:56:28Z</time>
      </trkpt>
      <trkpt lat="44.69687" lon="1.28689">
        <ele>208.26</ele>
        <time>2023-06-19T08:56:40Z</time>
      </trkpt>
      <trkpt lat="44.69695" lon="1.28678">
        <ele>208.74</ele>
        <time>2023-06-19T08:56:51Z</time>
      </trkpt>
      <trkpt lat="44.69702" lon="1.28666">
        <ele>208.74</ele>
        <time>2023-06-19T08:57:01Z</time>
      </trkpt>
      <trkpt lat="44.69709" lon="1.28654">
        <ele>208.74</ele>
        <time>2023-06-19T08:57:10Z</time>
      </trkpt>
      <trkpt lat="44.69717" lon="1.28645">
        <ele>208.74</ele>
        <time>2023-06-19T08:57:20Z</time>
      </trkpt>
      <trkpt lat="44.69725" lon="1.28635">
        <ele>209.7</ele>
        <time>2023-06-19T08:57:34Z</time>
      </trkpt>
      <trkpt lat="44.69726" lon="1.28622">
        <ele>210.19</ele>
        <time>2023-06-19T08:58:14Z</time>
      </trkpt>
      <trkpt lat="44.69718" lon="1.28616">
        <ele>207.78</ele>
        <time>2023-06-19T08:58:30Z</time>
      </trkpt>
      <trkpt lat="44.69709" lon="1.28611">
        <ele>206.34</ele>
        <time>2023-06-19T08:58:43Z</time>
      </trkpt>
      <trkpt lat="44.69699" lon="1.28606">
        <ele>204.42</ele>
        <time>2023-06-19T08:58:55Z</time>
      </trkpt>
      <trkpt lat="44.6969" lon="1.28601">
        <ele>202.98</ele>
        <time>2023-06-19T08:59:06Z</time>
      </trkpt>
      <trkpt lat="44.69678" lon="1.28594">
        <ele>200.57</ele>
        <time>2023-06-19T08:59:19Z</time>
      </trkpt>
      <trkpt lat="44.69668" lon="1.28587">
        <ele>199.13</ele>
        <time>2023-06-19T08:59:31Z</time>
      </trkpt>
      <trkpt lat="44.69658" lon="1.28581">
        <ele>196.73</ele>
        <time>2023-06-19T08:59:42Z</time>
      </trkpt>
      <trkpt lat="44.69649" lon="1.28576">
        <ele>195.28</ele>
        <time>2023-06-19T08:59:53Z</time>
      </trkpt>
      <trkpt lat="44.69639" lon="1.2857">
        <ele>193.84</ele>
        <time>2023-06-19T09:00:04Z</time>
      </trkpt>
      <trkpt lat="44.6963" lon="1.28568">
        <ele>192.88</ele>
        <time>2023-06-19T09:00:15Z</time>
      </trkpt>
      <trkpt lat="44.69621" lon="1.28565">
        <ele>190.96</ele>
        <time>2023-06-19T09:00:27Z</time>
      </trkpt>
      <trkpt lat="44.69612" lon="1.2856">
        <ele>190</ele>
        <time>2023-06-19T09:00:39Z</time>
      </trkpt>
      <trkpt lat="44.69603" lon="1.28553">
        <ele>188.56</ele>
        <time>2023-06-19T09:00:51Z</time>
      </trkpt>
      <trkpt lat="44.69594" lon="1.28545">
        <ele>187.11</ele>
        <time>2023-06-19T09:01:04Z</time>
      </trkpt>
      <trkpt lat="44.69585" lon="1.28538">
        <ele>185.19</ele>
        <time>2023-06-19T09:01:17Z</time>
      </trkpt>
      <trkpt lat="44.69574" lon="1.28532">
        <ele>182.79</ele>
        <time>2023-06-19T09:01:29Z</time>
      </trkpt>
      <trkpt lat="44.69563" lon="1.2853">
        <ele>181.83</ele>
        <time>2023-06-19T09:01:39Z</time>
      </trkpt>
      <trkpt lat="44.69553" lon="1.28528">
        <ele>179.9</ele>
        <time>2023-06-19T09:01:49Z</time>
      </trkpt>
      <trkpt lat="44.69543" lon="1.28526">
        <ele>178.46</ele>
        <time>2023-06-19T09:02:00Z</time>
      </trkpt>
      <trkpt lat="44.69532" lon="1.28523">
        <ele>176.54</ele>
        <time>2023-06-19T09:02:13Z</time>
      </trkpt>
      <trkpt lat="44.69522" lon="1.28521">
        <ele>175.1</ele>
        <time>2023-06-19T09:02:24Z</time>
      </trkpt>
      <trkpt lat="44.6951" lon="1.28524">
        <ele>173.17</ele>
        <time>2023-06-19T09:02:36Z</time>
      </trkpt>
      <trkpt lat="44.69498" lon="1.28529">
        <ele>170.77</ele>
        <time>2023-06-19T09:02:50Z</time>
      </trkpt>
      <trkpt lat="44.69487" lon="1.28539">
        <ele>168.85</ele>
        <time>2023-06-19T09:03:03Z</time>
      </trkpt>
      <trkpt lat="44.69476" lon="1.28549">
        <ele>166.93</ele>
        <time>2023-06-19T09:03:19Z</time>
      </trkpt>
      <trkpt lat="44.69466" lon="1.2856">
        <ele>165</ele>
        <time>2023-06-19T09:03:33Z</time>
      </trkpt>
      <trkpt lat="44.69454" lon="1.2857">
        <ele>163.08</ele>
        <time>2023-06-19T09:03:47Z</time>
      </trkpt>
      <trkpt lat="44.69441" lon="1.28579">
        <ele>161.16</ele>
        <time>2023-06-19T09:04:05Z</time>
      </trkpt>
      <trkpt lat="44.69431" lon="1.28585">
        <ele>159.72</ele>
        <time>2023-06-19T09:04:20Z</time>
      </trkpt>
      <trkpt lat="44.69421" lon="1.28594">
        <ele>157.79</ele>
        <time>2023-06-19T09:04:34Z</time>
      </trkpt>
      <trkpt lat="44.69412" lon="1.28604">
        <ele>156.35</ele>
        <time>2023-06-19T09:04:45Z</time>
      </trkpt>
      <trkpt lat="44.69401" lon="1.28612">
        <ele>155.39</ele>
        <time>2023-06-19T09:04:55Z</time>
      </trkpt>
      <trkpt lat="44.69386" lon="1.28617">
        <ele>154.91</ele>
        <time>2023-06-19T09:05:07Z</time>
      </trkpt>
      <trkpt lat="44.69379" lon="1.28608">
        <ele>153.95</ele>
        <time>2023-06-19T09:05:16Z</time>
      </trkpt>
      <trkpt lat="44.69369" lon="1.28602">
        <ele>153.47</ele>
        <time>2023-06-19T09:05:25Z</time>
      </trkpt>
      <trkpt lat="44.69364" lon="1.28592">
        <ele>153.47</ele>
        <time>2023-06-19T09:05:33Z</time>
      </trkpt>
      <trkpt lat="44.69357" lon="1.28582">
        <ele>153.47</ele>
        <time>2023-06-19T09:05:43Z</time>
      </trkpt>
      <trkpt lat="44.6935" lon="1.28569">
        <ele>153.47</ele>
        <time>2023-06-19T09:05:52Z</time>
      </trkpt>
      <trkpt lat="44.69344" lon="1.28559">
        <ele>154.43</ele>
        <time>2023-06-19T09:06:01Z</time>
      </trkpt>
      <trkpt lat="44.69338" lon="1.28547">
        <ele>155.39</ele>
        <time>2023-06-19T09:06:12Z</time>
      </trkpt>
      <trkpt lat="44.69339" lon="1.28534">
        <ele>155.39</ele>
        <time>2023-06-19T09:06:21Z</time>
      </trkpt>
      <trkpt lat="44.69344" lon="1.28524">
        <ele>155.87</ele>
        <time>2023-06-19T09:06:29Z</time>
      </trkpt>
      <trkpt lat="44.6934" lon="1.28514">
        <ele>157.79</ele>
        <time>2023-06-19T09:06:39Z</time>
      </trkpt>
      <trkpt lat="44.69333" lon="1.28503">
        <ele>159.24</ele>
        <time>2023-06-19T09:06:51Z</time>
      </trkpt>
      <trkpt lat="44.69325" lon="1.28492">
        <ele>160.68</ele>
        <time>2023-06-19T09:07:04Z</time>
      </trkpt>
      <trkpt lat="44.6932" lon="1.28474">
        <ele>162.12</ele>
        <time>2023-06-19T09:07:20Z</time>
      </trkpt>
      <trkpt lat="44.69315" lon="1.28459">
        <ele>162.6</ele>
        <time>2023-06-19T09:07:37Z</time>
      </trkpt>
      <trkpt lat="44.69309" lon="1.28442">
        <ele>163.56</ele>
        <time>2023-06-19T09:07:51Z</time>
      </trkpt>
      <trkpt lat="44.69305" lon="1.28425">
        <ele>164.04</ele>
        <time>2023-06-19T09:08:07Z</time>
      </trkpt>
      <trkpt lat="44.693" lon="1.2841">
        <ele>165</ele>
        <time>2023-06-19T09:08:21Z</time>
      </trkpt>
      <trkpt lat="44.69296" lon="1.28393">
        <ele>166.45</ele>
        <time>2023-06-19T09:08:37Z</time>
      </trkpt>
      <trkpt lat="44.69292" lon="1.28375">
        <ele>168.37</ele>
        <time>2023-06-19T09:08:53Z</time>
      </trkpt>
      <trkpt lat="44.69287" lon="1.2836">
        <ele>169.33</ele>
        <time>2023-06-19T09:09:07Z</time>
      </trkpt>
      <trkpt lat="44.69279" lon="1.28345">
        <ele>170.77</ele>
        <time>2023-06-19T09:09:22Z</time>
      </trkpt>
      <trkpt lat="44.69275" lon="1.28331">
        <ele>172.69</ele>
        <time>2023-06-19T09:09:36Z</time>
      </trkpt>
      <trkpt lat="44.69277" lon="1.28313">
        <ele>174.62</ele>
        <time>2023-06-19T09:09:52Z</time>
      </trkpt>
      <trkpt lat="44.69281" lon="1.28297">
        <ele>176.06</ele>
        <time>2023-06-19T09:10:07Z</time>
      </trkpt>
      <trkpt lat="44.6928" lon="1.2828">
        <ele>177.5</ele>
        <time>2023-06-19T09:10:22Z</time>
      </trkpt>
      <trkpt lat="44.69278" lon="1.28265">
        <ele>178.46</ele>
        <time>2023-06-19T09:10:36Z</time>
      </trkpt>
      <trkpt lat="44.69272" lon="1.2825">
        <ele>180.38</ele>
        <time>2023-06-19T09:10:53Z</time>
      </trkpt>
      <trkpt lat="44.69263" lon="1.28238">
        <ele>181.83</ele>
        <time>2023-06-19T09:11:08Z</time>
      </trkpt>
      <trkpt lat="44.69256" lon="1.28228">
        <ele>183.27</ele>
        <time>2023-06-19T09:11:23Z</time>
      </trkpt>
      <trkpt lat="44.69251" lon="1.28215">
        <ele>184.71</ele>
        <time>2023-06-19T09:11:37Z</time>
      </trkpt>
      <trkpt lat="44.69247" lon="1.28201">
        <ele>185.67</ele>
        <time>2023-06-19T09:11:49Z</time>
      </trkpt>
      <trkpt lat="44.69243" lon="1.28184">
        <ele>186.63</ele>
        <time>2023-06-19T09:12:04Z</time>
      </trkpt>
      <trkpt lat="44.69239" lon="1.28164">
        <ele>187.11</ele>
        <time>2023-06-19T09:12:20Z</time>
      </trkpt>
      <trkpt lat="44.69234" lon="1.28145">
        <ele>189.04</ele>
        <time>2023-06-19T09:12:36Z</time>
      </trkpt>
      <trkpt lat="44.69229" lon="1.28129">
        <ele>189.52</ele>
        <time>2023-06-19T09:12:50Z</time>
      </trkpt>
      <trkpt lat="44.69224" lon="1.28115">
        <ele>190</ele>
        <time>2023-06-19T09:13:01Z</time>
      </trkpt>
      <trkpt lat="44.69218" lon="1.28103">
        <ele>190.48</ele>
        <time>2023-06-19T09:13:11Z</time>
      </trkpt>
      <trkpt lat="44.69213" lon="1.2809">
        <ele>190.96</ele>
        <time>2023-06-19T09:13:21Z</time>
      </trkpt>
      <trkpt lat="44.69209" lon="1.28076">
        <ele>191.44</ele>
        <time>2023-06-19T09:13:33Z</time>
      </trkpt>
      <trkpt lat="44.69206" lon="1.28063">
        <ele>191.92</ele>
        <time>2023-06-19T09:13:44Z</time>
      </trkpt>
      <trkpt lat="44.69204" lon="1.28048">
        <ele>192.4</ele>
        <time>2023-06-19T09:13:56Z</time>
      </trkpt>
      <trkpt lat="44.69204" lon="1.28032">
        <ele>193.36</ele>
        <time>2023-06-19T09:14:10Z</time>
      </trkpt>
      <trkpt lat="44.69203" lon="1.28016">
        <ele>193.84</ele>
        <time>2023-06-19T09:14:23Z</time>
      </trkpt>
      <trkpt lat="44.69202" lon="1.27998">
        <ele>195.77</ele>
        <time>2023-06-19T09:14:43Z</time>
      </trkpt>
      <trkpt lat="44.69196" lon="1.27985">
        <ele>195.77</ele>
        <time>2023-06-19T09:15:02Z</time>
      </trkpt>
      <trkpt lat="44.69191" lon="1.27969">
        <ele>195.77</ele>
        <time>2023-06-19T09:16:02Z</time>
      </trkpt>
      <trkpt lat="44.69184" lon="1.27953">
        <ele>195.28</ele>
        <time>2023-06-19T09:16:22Z</time>
      </trkpt>
      <trkpt lat="44.6918" lon="1.2794">
        <ele>193.84</ele>
        <time>2023-06-19T09:16:34Z</time>
      </trkpt>
      <trkpt lat="44.69175" lon="1.27925">
        <ele>193.84</ele>
        <time>2023-06-19T09:16:46Z</time>
      </trkpt>
      <trkpt lat="44.69171" lon="1.2791">
        <ele>192.88</ele>
        <time>2023-06-19T09:16:58Z</time>
      </trkpt>
      <trkpt lat="44.69166" lon="1.27895">
        <ele>192.4</ele>
        <time>2023-06-19T09:17:08Z</time>
      </trkpt>
      <trkpt lat="44.69162" lon="1.27882">
        <ele>191.92</ele>
        <time>2023-06-19T09:17:18Z</time>
      </trkpt>
      <trkpt lat="44.69158" lon="1.27867">
        <ele>191.44</ele>
        <time>2023-06-19T09:17:28Z</time>
      </trkpt>
      <trkpt lat="44.69153" lon="1.27853">
        <ele>190.48</ele>
        <time>2023-06-19T09:17:38Z</time>
      </trkpt>
      <trkpt lat="44.6915" lon="1.27838">
        <ele>190</ele>
        <time>2023-06-19T09:17:48Z</time>
      </trkpt>
      <trkpt lat="44.69146" lon="1.27824">
        <ele>189.04</ele>
        <time>2023-06-19T09:17:59Z</time>
      </trkpt>
      <trkpt lat="44.69143" lon="1.27809">
        <ele>188.56</ele>
        <time>2023-06-19T09:18:08Z</time>
      </trkpt>
      <trkpt lat="44.69142" lon="1.27791">
        <ele>187.59</ele>
        <time>2023-06-19T09:18:19Z</time>
      </trkpt>
      <trkpt lat="44.69141" lon="1.27775">
        <ele>186.63</ele>
        <time>2023-06-19T09:18:29Z</time>
      </trkpt>
      <trkpt lat="44.69143" lon="1.27759">
        <ele>185.67</ele>
        <time>2023-06-19T09:18:42Z</time>
      </trkpt>
      <trkpt lat="44.69146" lon="1.27743">
        <ele>185.19</ele>
        <time>2023-06-19T09:18:54Z</time>
      </trkpt>
      <trkpt lat="44.6915" lon="1.27731">
        <ele>184.71</ele>
        <time>2023-06-19T09:19:16Z</time>
      </trkpt>
      <trkpt lat="44.69162" lon="1.27722">
        <ele>186.15</ele>
        <time>2023-06-19T09:19:37Z</time>
      </trkpt>
      <trkpt lat="44.69175" lon="1.2772">
        <ele>187.59</ele>
        <time>2023-06-19T09:19:50Z</time>
      </trkpt>
      <trkpt lat="44.69185" lon="1.27717">
        <ele>188.56</ele>
        <time>2023-06-19T09:20:02Z</time>
      </trkpt>
      <trkpt lat="44.69197" lon="1.27715">
        <ele>190</ele>
        <time>2023-06-19T09:20:16Z</time>
      </trkpt>
      <trkpt lat="44.69209" lon="1.27716">
        <ele>191.44</ele>
        <time>2023-06-19T09:20:29Z</time>
      </trkpt>
      <trkpt lat="44.6922" lon="1.27715">
        <ele>193.36</ele>
        <time>2023-06-19T09:20:41Z</time>
      </trkpt>
      <trkpt lat="44.6923" lon="1.27718">
        <ele>194.8</ele>
        <time>2023-06-19T09:20:52Z</time>
      </trkpt>
      <trkpt lat="44.69241" lon="1.27718">
        <ele>196.25</ele>
        <time>2023-06-19T09:21:04Z</time>
      </trkpt>
      <trkpt lat="44.69255" lon="1.27718">
        <ele>197.69</ele>
        <time>2023-06-19T09:21:20Z</time>
      </trkpt>
      <trkpt lat="44.69269" lon="1.2772">
        <ele>198.17</ele>
        <time>2023-06-19T09:21:32Z</time>
      </trkpt>
      <trkpt lat="44.69283" lon="1.27718">
        <ele>198.65</ele>
        <time>2023-06-19T09:21:44Z</time>
      </trkpt>
      <trkpt lat="44.69293" lon="1.27713">
        <ele>200.09</ele>
        <time>2023-06-19T09:21:56Z</time>
      </trkpt>
      <trkpt lat="44.69303" lon="1.27706">
        <ele>201.05</ele>
        <time>2023-06-19T09:22:08Z</time>
      </trkpt>
      <trkpt lat="44.69311" lon="1.27696">
        <ele>202.01</ele>
        <time>2023-06-19T09:22:19Z</time>
      </trkpt>
      <trkpt lat="44.69319" lon="1.27683">
        <ele>203.46</ele>
        <time>2023-06-19T09:22:30Z</time>
      </trkpt>
      <trkpt lat="44.69326" lon="1.27671">
        <ele>204.9</ele>
        <time>2023-06-19T09:22:41Z</time>
      </trkpt>
      <trkpt lat="44.69334" lon="1.27658">
        <ele>206.34</ele>
        <time>2023-06-19T09:22:54Z</time>
      </trkpt>
      <trkpt lat="44.6934" lon="1.27645">
        <ele>207.3</ele>
        <time>2023-06-19T09:23:05Z</time>
      </trkpt>
      <trkpt lat="44.69348" lon="1.27632">
        <ele>209.22</ele>
        <time>2023-06-19T09:23:16Z</time>
      </trkpt>
      <trkpt lat="44.69353" lon="1.27616">
        <ele>210.67</ele>
        <time>2023-06-19T09:23:28Z</time>
      </trkpt>
      <trkpt lat="44.69356" lon="1.27598">
        <ele>211.63</ele>
        <time>2023-06-19T09:23:40Z</time>
      </trkpt>
      <trkpt lat="44.69362" lon="1.27585">
        <ele>213.07</ele>
        <time>2023-06-19T09:23:51Z</time>
      </trkpt>
      <trkpt lat="44.69371" lon="1.27573">
        <ele>214.51</ele>
        <time>2023-06-19T09:24:04Z</time>
      </trkpt>
      <trkpt lat="44.6938" lon="1.27558">
        <ele>215.47</ele>
        <time>2023-06-19T09:24:20Z</time>
      </trkpt>
      <trkpt lat="44.69387" lon="1.2754">
        <ele>217.4</ele>
        <time>2023-06-19T09:24:34Z</time>
      </trkpt>
      <trkpt lat="44.69392" lon="1.27524">
        <ele>218.84</ele>
        <time>2023-06-19T09:24:46Z</time>
      </trkpt>
      <trkpt lat="44.69399" lon="1.2751">
        <ele>220.28</ele>
        <time>2023-06-19T09:24:58Z</time>
      </trkpt>
      <trkpt lat="44.69407" lon="1.275">
        <ele>221.24</ele>
        <time>2023-06-19T09:25:10Z</time>
      </trkpt>
      <trkpt lat="44.69417" lon="1.27492">
        <ele>222.2</ele>
        <time>2023-06-19T09:25:33Z</time>
      </trkpt>
      <trkpt lat="44.69427" lon="1.27489">
        <ele>222.68</ele>
        <time>2023-06-19T09:25:44Z</time>
      </trkpt>
      <trkpt lat="44.69436" lon="1.2748">
        <ele>223.16</ele>
        <time>2023-06-19T09:25:56Z</time>
      </trkpt>
      <trkpt lat="44.69445" lon="1.27469">
        <ele>223.64</ele>
        <time>2023-06-19T09:26:11Z</time>
      </trkpt>
      <trkpt lat="44.69459" lon="1.27448">
        <ele>224.61</ele>
        <time>2023-06-19T09:26:31Z</time>
      </trkpt>
      <trkpt lat="44.69467" lon="1.27434">
        <ele>226.05</ele>
        <time>2023-06-19T09:26:43Z</time>
      </trkpt>
      <trkpt lat="44.69468" lon="1.27422">
        <ele>226.05</ele>
        <time>2023-06-19T09:26:55Z</time>
      </trkpt>
      <trkpt lat="44.69462" lon="1.27409">
        <ele>226.05</ele>
        <time>2023-06-19T09:27:05Z</time>
      </trkpt>
      <trkpt lat="44.69457" lon="1.27397">
        <ele>226.05</ele>
        <time>2023-06-19T09:27:14Z</time>
      </trkpt>
      <trkpt lat="44.69451" lon="1.27382">
        <ele>225.09</ele>
        <time>2023-06-19T09:27:25Z</time>
      </trkpt>
      <trkpt lat="44.69444" lon="1.2737">
        <ele>223.64</ele>
        <time>2023-06-19T09:27:36Z</time>
      </trkpt>
      <trkpt lat="44.69438" lon="1.27358">
        <ele>222.2</ele>
        <time>2023-06-19T09:27:47Z</time>
      </trkpt>
      <trkpt lat="44.69429" lon="1.27349">
        <ele>220.76</ele>
        <time>2023-06-19T09:27:56Z</time>
      </trkpt>
      <trkpt lat="44.6942" lon="1.2734">
        <ele>219.32</ele>
        <time>2023-06-19T09:28:06Z</time>
      </trkpt>
      <trkpt lat="44.6941" lon="1.27334">
        <ele>218.36</ele>
        <time>2023-06-19T09:28:15Z</time>
      </trkpt>
      <trkpt lat="44.69401" lon="1.27328">
        <ele>217.88</ele>
        <time>2023-06-19T09:28:25Z</time>
      </trkpt>
      <trkpt lat="44.69392" lon="1.2732">
        <ele>216.43</ele>
        <time>2023-06-19T09:28:34Z</time>
      </trkpt>
      <trkpt lat="44.69383" lon="1.27313">
        <ele>215.47</ele>
        <time>2023-06-19T09:28:43Z</time>
      </trkpt>
      <trkpt lat="44.69375" lon="1.27307">
        <ele>214.99</ele>
        <time>2023-06-19T09:28:52Z</time>
      </trkpt>
      <trkpt lat="44.69367" lon="1.27304">
        <ele>214.03</ele>
        <time>2023-06-19T09:29:07Z</time>
      </trkpt>
      <trkpt lat="44.69357" lon="1.27313">
        <ele>212.11</ele>
        <time>2023-06-19T09:29:22Z</time>
      </trkpt>
      <trkpt lat="44.69347" lon="1.27325">
        <ele>210.19</ele>
        <time>2023-06-19T09:29:37Z</time>
      </trkpt>
      <trkpt lat="44.69338" lon="1.27335">
        <ele>208.26</ele>
        <time>2023-06-19T09:29:50Z</time>
      </trkpt>
      <trkpt lat="44.69327" lon="1.27347">
        <ele>206.34</ele>
        <time>2023-06-19T09:30:05Z</time>
      </trkpt>
      <trkpt lat="44.69317" lon="1.27355">
        <ele>204.42</ele>
        <time>2023-06-19T09:30:21Z</time>
      </trkpt>
      <trkpt lat="44.69305" lon="1.27361">
        <ele>201.53</ele>
        <time>2023-06-19T09:30:38Z</time>
      </trkpt>
      <trkpt lat="44.69292" lon="1.27363">
        <ele>198.65</ele>
        <time>2023-06-19T09:30:55Z</time>
      </trkpt>
      <trkpt lat="44.69278" lon="1.27366">
        <ele>195.77</ele>
        <time>2023-06-19T09:31:13Z</time>
      </trkpt>
      <trkpt lat="44.69265" lon="1.27364">
        <ele>193.36</ele>
        <time>2023-06-19T09:31:31Z</time>
      </trkpt>
      <trkpt lat="44.69255" lon="1.2736">
        <ele>190.96</ele>
        <time>2023-06-19T09:31:42Z</time>
      </trkpt>
      <trkpt lat="44.69245" lon="1.27354">
        <ele>189.52</ele>
        <time>2023-06-19T09:31:54Z</time>
      </trkpt>
      <trkpt lat="44.69235" lon="1.27344">
        <ele>187.59</ele>
        <time>2023-06-19T09:32:06Z</time>
      </trkpt>
      <trkpt lat="44.69225" lon="1.27334">
        <ele>185.19</ele>
        <time>2023-06-19T09:32:20Z</time>
      </trkpt>
      <trkpt lat="44.69216" lon="1.27325">
        <ele>182.79</ele>
        <time>2023-06-19T09:32:34Z</time>
      </trkpt>
      <trkpt lat="44.69209" lon="1.27314">
        <ele>181.35</ele>
        <time>2023-06-19T09:32:47Z</time>
      </trkpt>
      <trkpt lat="44.69201" lon="1.27305">
        <ele>178.94</ele>
        <time>2023-06-19T09:33:01Z</time>
      </trkpt>
      <trkpt lat="44.6919" lon="1.27297">
        <ele>177.02</ele>
        <time>2023-06-19T09:33:14Z</time>
      </trkpt>
      <trkpt lat="44.69178" lon="1.27293">
        <ele>176.06</ele>
        <time>2023-06-19T09:33:26Z</time>
      </trkpt>
      <trkpt lat="44.69167" lon="1.2729">
        <ele>176.06</ele>
        <time>2023-06-19T09:33:38Z</time>
      </trkpt>
      <trkpt lat="44.69156" lon="1.27291">
        <ele>176.06</ele>
        <time>2023-06-19T09:33:51Z</time>
      </trkpt>
      <trkpt lat="44.69153" lon="1.27292">
        <ele>177.02</ele>
        <time>2023-06-19T09:36:38Z</time>
      </trkpt>
      <trkpt lat="44.6915" lon="1.273">
        <ele>177.02</ele>
        <time>2023-06-19T09:37:28Z</time>
      </trkpt>
      <trkpt lat="44.69141" lon="1.27309">
        <ele>177.02</ele>
        <time>2023-06-19T09:37:33Z</time>
      </trkpt>
      <trkpt lat="44.69132" lon="1.27315">
        <ele>177.02</ele>
        <time>2023-06-19T09:37:38Z</time>
      </trkpt>
      <trkpt lat="44.69123" lon="1.27317">
        <ele>177.02</ele>
        <time>2023-06-19T09:37:44Z</time>
      </trkpt>
      <trkpt lat="44.69113" lon="1.27318">
        <ele>175.58</ele>
        <time>2023-06-19T09:37:50Z</time>
      </trkpt>
      <trkpt lat="44.69102" lon="1.27317">
        <ele>175.1</ele>
        <time>2023-06-19T09:37:57Z</time>
      </trkpt>
      <trkpt lat="44.69092" lon="1.27315">
        <ele>174.62</ele>
        <time>2023-06-19T09:38:05Z</time>
      </trkpt>
      <trkpt lat="44.69083" lon="1.27314">
        <ele>173.66</ele>
        <time>2023-06-19T09:38:12Z</time>
      </trkpt>
      <trkpt lat="44.69073" lon="1.27314">
        <ele>173.66</ele>
        <time>2023-06-19T09:38:19Z</time>
      </trkpt>
      <trkpt lat="44.69063" lon="1.27314">
        <ele>173.17</ele>
        <time>2023-06-19T09:38:26Z</time>
      </trkpt>
      <trkpt lat="44.69052" lon="1.27317">
        <ele>173.17</ele>
        <time>2023-06-19T09:38:33Z</time>
      </trkpt>
      <trkpt lat="44.69042" lon="1.27321">
        <ele>173.17</ele>
        <time>2023-06-19T09:38:40Z</time>
      </trkpt>
      <trkpt lat="44.69032" lon="1.27326">
        <ele>172.69</ele>
        <time>2023-06-19T09:38:47Z</time>
      </trkpt>
      <trkpt lat="44.69023" lon="1.27331">
        <ele>172.69</ele>
        <time>2023-06-19T09:38:54Z</time>
      </trkpt>
      <trkpt lat="44.69013" lon="1.27337">
        <ele>172.69</ele>
        <time>2023-06-19T09:39:02Z</time>
      </trkpt>
      <trkpt lat="44.69001" lon="1.27345">
        <ele>172.69</ele>
        <time>2023-06-19T09:39:12Z</time>
      </trkpt>
      <trkpt lat="44.68988" lon="1.27354">
        <ele>172.69</ele>
        <time>2023-06-19T09:39:20Z</time>
      </trkpt>
      <trkpt lat="44.68975" lon="1.27355">
        <ele>172.69</ele>
        <time>2023-06-19T09:39:28Z</time>
      </trkpt>
      <trkpt lat="44.68964" lon="1.27354">
        <ele>172.69</ele>
        <time>2023-06-19T09:39:36Z</time>
      </trkpt>
      <trkpt lat="44.68954" lon="1.27348">
        <ele>172.69</ele>
        <time>2023-06-19T09:39:43Z</time>
      </trkpt>
      <trkpt lat="44.68945" lon="1.27341">
        <ele>172.69</ele>
        <time>2023-06-19T09:39:50Z</time>
      </trkpt>
      <trkpt lat="44.68935" lon="1.27332">
        <ele>172.69</ele>
        <time>2023-06-19T09:39:57Z</time>
      </trkpt>
      <trkpt lat="44.68928" lon="1.27321">
        <ele>172.69</ele>
        <time>2023-06-19T09:40:04Z</time>
      </trkpt>
      <trkpt lat="44.68919" lon="1.27311">
        <ele>172.69</ele>
        <time>2023-06-19T09:40:11Z</time>
      </trkpt>
      <trkpt lat="44.6891" lon="1.27305">
        <ele>172.69</ele>
        <time>2023-06-19T09:40:18Z</time>
      </trkpt>
      <trkpt lat="44.689" lon="1.27301">
        <ele>172.69</ele>
        <time>2023-06-19T09:40:25Z</time>
      </trkpt>
      <trkpt lat="44.68891" lon="1.27298">
        <ele>172.21</ele>
        <time>2023-06-19T09:40:31Z</time>
      </trkpt>
      <trkpt lat="44.68881" lon="1.27299">
        <ele>172.21</ele>
        <time>2023-06-19T09:40:38Z</time>
      </trkpt>
      <trkpt lat="44.68871" lon="1.273">
        <ele>172.21</ele>
        <time>2023-06-19T09:40:44Z</time>
      </trkpt>
      <trkpt lat="44.68862" lon="1.27302">
        <ele>172.21</ele>
        <time>2023-06-19T09:40:50Z</time>
      </trkpt>
      <trkpt lat="44.68851" lon="1.27303">
        <ele>172.21</ele>
        <time>2023-06-19T09:40:57Z</time>
      </trkpt>
      <trkpt lat="44.68842" lon="1.27303">
        <ele>173.66</ele>
        <time>2023-06-19T09:41:03Z</time>
      </trkpt>
      <trkpt lat="44.68832" lon="1.27303">
        <ele>173.66</ele>
        <time>2023-06-19T09:41:10Z</time>
      </trkpt>
      <trkpt lat="44.68822" lon="1.27304">
        <ele>174.14</ele>
        <time>2023-06-19T09:41:17Z</time>
      </trkpt>
      <trkpt lat="44.68812" lon="1.27304">
        <ele>174.62</ele>
        <time>2023-06-19T09:41:24Z</time>
      </trkpt>
      <trkpt lat="44.688" lon="1.273">
        <ele>174.62</ele>
        <time>2023-06-19T09:41:33Z</time>
      </trkpt>
      <trkpt lat="44.68788" lon="1.273">
        <ele>175.1</ele>
        <time>2023-06-19T09:41:41Z</time>
      </trkpt>
      <trkpt lat="44.68776" lon="1.273">
        <ele>175.58</ele>
        <time>2023-06-19T09:41:50Z</time>
      </trkpt>
      <trkpt lat="44.68766" lon="1.27298">
        <ele>175.58</ele>
        <time>2023-06-19T09:41:58Z</time>
      </trkpt>
      <trkpt lat="44.68754" lon="1.27295">
        <ele>176.06</ele>
        <time>2023-06-19T09:42:08Z</time>
      </trkpt>
      <trkpt lat="44.68743" lon="1.2729">
        <ele>175.58</ele>
        <time>2023-06-19T09:42:18Z</time>
      </trkpt>
      <trkpt lat="44.68733" lon="1.27284">
        <ele>175.58</ele>
        <time>2023-06-19T09:42:27Z</time>
      </trkpt>
      <trkpt lat="44.68721" lon="1.27276">
        <ele>175.58</ele>
        <time>2023-06-19T09:42:36Z</time>
      </trkpt>
      <trkpt lat="44.68711" lon="1.27269">
        <ele>175.58</ele>
        <time>2023-06-19T09:42:44Z</time>
      </trkpt>
      <trkpt lat="44.68701" lon="1.27266">
        <ele>175.58</ele>
        <time>2023-06-19T09:42:52Z</time>
      </trkpt>
      <trkpt lat="44.6869" lon="1.27266">
        <ele>175.58</ele>
        <time>2023-06-19T09:43:01Z</time>
      </trkpt>
      <trkpt lat="44.6868" lon="1.27264">
        <ele>175.58</ele>
        <time>2023-06-19T09:43:09Z</time>
      </trkpt>
      <trkpt lat="44.68669" lon="1.27264">
        <ele>175.58</ele>
        <time>2023-06-19T09:43:17Z</time>
      </trkpt>
      <trkpt lat="44.6866" lon="1.27262">
        <ele>175.58</ele>
        <time>2023-06-19T09:43:26Z</time>
      </trkpt>
      <trkpt lat="44.68651" lon="1.27255">
        <ele>174.14</ele>
        <time>2023-06-19T09:43:35Z</time>
      </trkpt>
      <trkpt lat="44.68642" lon="1.2725">
        <ele>173.17</ele>
        <time>2023-06-19T09:43:44Z</time>
      </trkpt>
      <trkpt lat="44.68634" lon="1.27243">
        <ele>172.69</ele>
        <time>2023-06-19T09:43:52Z</time>
      </trkpt>
      <trkpt lat="44.68626" lon="1.27236">
        <ele>172.69</ele>
        <time>2023-06-19T09:44:00Z</time>
      </trkpt>
      <trkpt lat="44.68618" lon="1.27227">
        <ele>171.73</ele>
        <time>2023-06-19T09:44:09Z</time>
      </trkpt>
      <trkpt lat="44.68611" lon="1.27219">
        <ele>171.25</ele>
        <time>2023-06-19T09:44:17Z</time>
      </trkpt>
      <trkpt lat="44.68603" lon="1.27211">
        <ele>170.77</ele>
        <time>2023-06-19T09:44:25Z</time>
      </trkpt>
      <trkpt lat="44.68595" lon="1.27203">
        <ele>169.81</ele>
        <time>2023-06-19T09:44:34Z</time>
      </trkpt>
      <trkpt lat="44.68586" lon="1.27195">
        <ele>169.33</ele>
        <time>2023-06-19T09:44:44Z</time>
      </trkpt>
      <trkpt lat="44.68578" lon="1.27186">
        <ele>168.37</ele>
        <time>2023-06-19T09:44:54Z</time>
      </trkpt>
      <trkpt lat="44.68571" lon="1.27178">
        <ele>167.89</ele>
        <time>2023-06-19T09:45:03Z</time>
      </trkpt>
      <trkpt lat="44.68562" lon="1.2717">
        <ele>166.93</ele>
        <time>2023-06-19T09:45:14Z</time>
      </trkpt>
      <trkpt lat="44.68555" lon="1.27163">
        <ele>165.96</ele>
        <time>2023-06-19T09:45:23Z</time>
      </trkpt>
      <trkpt lat="44.68547" lon="1.27154">
        <ele>165.48</ele>
        <time>2023-06-19T09:45:32Z</time>
      </trkpt>
      <trkpt lat="44.68538" lon="1.27144">
        <ele>165</ele>
        <time>2023-06-19T09:45:42Z</time>
      </trkpt>
      <trkpt lat="44.6853" lon="1.27135">
        <ele>164.04</ele>
        <time>2023-06-19T09:45:51Z</time>
      </trkpt>
      <trkpt lat="44.68522" lon="1.27127">
        <ele>163.56</ele>
        <time>2023-06-19T09:46:01Z</time>
      </trkpt>
      <trkpt lat="44.68515" lon="1.27117">
        <ele>163.08</ele>
        <time>2023-06-19T09:46:11Z</time>
      </trkpt>
      <trkpt lat="44.68505" lon="1.2711">
        <ele>162.6</ele>
        <time>2023-06-19T09:46:21Z</time>
      </trkpt>
      <trkpt lat="44.68496" lon="1.27101">
        <ele>162.12</ele>
        <time>2023-06-19T09:46:30Z</time>
      </trkpt>
      <trkpt lat="44.68488" lon="1.27093">
        <ele>161.64</ele>
        <time>2023-06-19T09:46:39Z</time>
      </trkpt>
      <trkpt lat="44.6848" lon="1.27085">
        <ele>160.68</ele>
        <time>2023-06-19T09:46:49Z</time>
      </trkpt>
      <trkpt lat="44.6847" lon="1.27082">
        <ele>159.72</ele>
        <time>2023-06-19T09:47:00Z</time>
      </trkpt>
      <trkpt lat="44.68462" lon="1.27075">
        <ele>159.24</ele>
        <time>2023-06-19T09:47:10Z</time>
      </trkpt>
      <trkpt lat="44.68455" lon="1.27064">
        <ele>159.24</ele>
        <time>2023-06-19T09:47:29Z</time>
      </trkpt>
      <trkpt lat="44.6845" lon="1.27052">
        <ele>159.24</ele>
        <time>2023-06-19T09:47:39Z</time>
      </trkpt>
      <trkpt lat="44.68445" lon="1.27039">
        <ele>159.24</ele>
        <time>2023-06-19T09:47:49Z</time>
      </trkpt>
      <trkpt lat="44.6844" lon="1.27026">
        <ele>159.24</ele>
        <time>2023-06-19T09:47:58Z</time>
      </trkpt>
      <trkpt lat="44.68435" lon="1.27015">
        <ele>159.24</ele>
        <time>2023-06-19T09:48:06Z</time>
      </trkpt>
      <trkpt lat="44.6843" lon="1.27004">
        <ele>159.24</ele>
        <time>2023-06-19T09:48:15Z</time>
      </trkpt>
      <trkpt lat="44.68424" lon="1.26994">
        <ele>159.24</ele>
        <time>2023-06-19T09:48:24Z</time>
      </trkpt>
      <trkpt lat="44.68417" lon="1.26985">
        <ele>159.24</ele>
        <time>2023-06-19T09:48:33Z</time>
      </trkpt>
      <trkpt lat="44.6841" lon="1.26976">
        <ele>159.24</ele>
        <time>2023-06-19T09:48:42Z</time>
      </trkpt>
      <trkpt lat="44.68414" lon="1.26964">
        <ele>159.24</ele>
        <time>2023-06-19T09:48:52Z</time>
      </trkpt>
      <trkpt lat="44.68418" lon="1.2695">
        <ele>161.16</ele>
        <time>2023-06-19T09:49:03Z</time>
      </trkpt>
      <trkpt lat="44.68419" lon="1.26935">
        <ele>161.64</ele>
        <time>2023-06-19T09:49:15Z</time>
      </trkpt>
      <trkpt lat="44.68415" lon="1.26922">
        <ele>161.64</ele>
        <time>2023-06-19T09:49:25Z</time>
      </trkpt>
      <trkpt lat="44.68409" lon="1.26906">
        <ele>162.12</ele>
        <time>2023-06-19T09:49:34Z</time>
      </trkpt>
      <trkpt lat="44.68401" lon="1.26889">
        <ele>163.08</ele>
        <time>2023-06-19T09:49:51Z</time>
      </trkpt>
      <trkpt lat="44.68393" lon="1.26875">
        <ele>163.56</ele>
        <time>2023-06-19T09:50:06Z</time>
      </trkpt>
      <trkpt lat="44.68388" lon="1.26859">
        <ele>163.56</ele>
        <time>2023-06-19T09:50:18Z</time>
      </trkpt>
      <trkpt lat="44.68381" lon="1.26844">
        <ele>163.56</ele>
        <time>2023-06-19T09:50:29Z</time>
      </trkpt>
      <trkpt lat="44.68375" lon="1.26827">
        <ele>163.56</ele>
        <time>2023-06-19T09:50:38Z</time>
      </trkpt>
      <trkpt lat="44.6837" lon="1.26812">
        <ele>164.52</ele>
        <time>2023-06-19T09:50:48Z</time>
      </trkpt>
      <trkpt lat="44.68366" lon="1.26797">
        <ele>164.52</ele>
        <time>2023-06-19T09:50:58Z</time>
      </trkpt>
      <trkpt lat="44.68362" lon="1.26783">
        <ele>164.52</ele>
        <time>2023-06-19T09:51:07Z</time>
      </trkpt>
      <trkpt lat="44.68358" lon="1.26768">
        <ele>164.52</ele>
        <time>2023-06-19T09:51:16Z</time>
      </trkpt>
      <trkpt lat="44.68356" lon="1.26754">
        <ele>164.52</ele>
        <time>2023-06-19T09:51:25Z</time>
      </trkpt>
      <trkpt lat="44.68356" lon="1.26738">
        <ele>165.48</ele>
        <time>2023-06-19T09:51:35Z</time>
      </trkpt>
      <trkpt lat="44.68357" lon="1.26723">
        <ele>165.96</ele>
        <time>2023-06-19T09:51:44Z</time>
      </trkpt>
      <trkpt lat="44.68359" lon="1.26709">
        <ele>165.48</ele>
        <time>2023-06-19T09:51:53Z</time>
      </trkpt>
      <trkpt lat="44.68363" lon="1.26696">
        <ele>165.48</ele>
        <time>2023-06-19T09:52:02Z</time>
      </trkpt>
      <trkpt lat="44.68365" lon="1.26682">
        <ele>165.96</ele>
        <time>2023-06-19T09:52:11Z</time>
      </trkpt>
      <trkpt lat="44.68368" lon="1.26669">
        <ele>165.96</ele>
        <time>2023-06-19T09:52:22Z</time>
      </trkpt>
      <trkpt lat="44.6837" lon="1.26648">
        <ele>166.93</ele>
        <time>2023-06-19T09:52:34Z</time>
      </trkpt>
      <trkpt lat="44.68373" lon="1.26627">
        <ele>166.93</ele>
        <time>2023-06-19T09:52:47Z</time>
      </trkpt>
      <trkpt lat="44.68375" lon="1.26606">
        <ele>166.93</ele>
        <time>2023-06-19T09:53:00Z</time>
      </trkpt>
      <trkpt lat="44.68376" lon="1.26589">
        <ele>166.45</ele>
        <time>2023-06-19T09:53:11Z</time>
      </trkpt>
      <trkpt lat="44.68376" lon="1.26573">
        <ele>166.45</ele>
        <time>2023-06-19T09:53:21Z</time>
      </trkpt>
      <trkpt lat="44.68376" lon="1.26556">
        <ele>166.45</ele>
        <time>2023-06-19T09:53:31Z</time>
      </trkpt>
      <trkpt lat="44.68375" lon="1.26539">
        <ele>166.45</ele>
        <time>2023-06-19T09:53:41Z</time>
      </trkpt>
      <trkpt lat="44.68375" lon="1.26523">
        <ele>166.45</ele>
        <time>2023-06-19T09:53:51Z</time>
      </trkpt>
      <trkpt lat="44.68373" lon="1.26506">
        <ele>165.96</ele>
        <time>2023-06-19T09:54:01Z</time>
      </trkpt>
      <trkpt lat="44.68371" lon="1.2649">
        <ele>165.96</ele>
        <time>2023-06-19T09:54:11Z</time>
      </trkpt>
      <trkpt lat="44.68371" lon="1.26477">
        <ele>165.96</ele>
        <time>2023-06-19T09:54:24Z</time>
      </trkpt>
      <trkpt lat="44.68372" lon="1.26463">
        <ele>165.96</ele>
        <time>2023-06-19T09:54:35Z</time>
      </trkpt>
      <trkpt lat="44.68371" lon="1.2645">
        <ele>165.96</ele>
        <time>2023-06-19T09:54:44Z</time>
      </trkpt>
      <trkpt lat="44.68366" lon="1.26434">
        <ele>165.96</ele>
        <time>2023-06-19T09:54:58Z</time>
      </trkpt>
      <trkpt lat="44.68363" lon="1.26421">
        <ele>165.48</ele>
        <time>2023-06-19T09:55:13Z</time>
      </trkpt>
      <trkpt lat="44.6836" lon="1.26405">
        <ele>165.48</ele>
        <time>2023-06-19T09:55:23Z</time>
      </trkpt>
      <trkpt lat="44.68358" lon="1.26393">
        <ele>165.48</ele>
        <time>2023-06-19T09:55:34Z</time>
      </trkpt>
      <trkpt lat="44.68356" lon="1.26379">
        <ele>165.48</ele>
        <time>2023-06-19T09:55:42Z</time>
      </trkpt>
      <trkpt lat="44.6835" lon="1.26366">
        <ele>165.48</ele>
        <time>2023-06-19T09:55:51Z</time>
      </trkpt>
      <trkpt lat="44.6834" lon="1.26364">
        <ele>165.48</ele>
        <time>2023-06-19T09:56:01Z</time>
      </trkpt>
      <trkpt lat="44.68329" lon="1.26364">
        <ele>165.48</ele>
        <time>2023-06-19T09:56:11Z</time>
      </trkpt>
      <trkpt lat="44.68319" lon="1.26366">
        <ele>164.52</ele>
        <time>2023-06-19T09:56:19Z</time>
      </trkpt>
      <trkpt lat="44.6831" lon="1.26367">
        <ele>164.04</ele>
        <time>2023-06-19T09:56:27Z</time>
      </trkpt>
      <trkpt lat="44.68298" lon="1.26367">
        <ele>164.04</ele>
        <time>2023-06-19T09:56:36Z</time>
      </trkpt>
      <trkpt lat="44.68289" lon="1.26359">
        <ele>163.08</ele>
        <time>2023-06-19T09:56:45Z</time>
      </trkpt>
      <trkpt lat="44.68281" lon="1.2635">
        <ele>163.08</ele>
        <time>2023-06-19T09:56:54Z</time>
      </trkpt>
      <trkpt lat="44.68275" lon="1.26341">
        <ele>163.08</ele>
        <time>2023-06-19T09:57:04Z</time>
      </trkpt>
      <trkpt lat="44.68268" lon="1.26323">
        <ele>163.08</ele>
        <time>2023-06-19T09:57:51Z</time>
      </trkpt>
      <trkpt lat="44.68263" lon="1.26308">
        <ele>164.52</ele>
        <time>2023-06-19T09:58:03Z</time>
      </trkpt>
      <trkpt lat="44.68258" lon="1.26294">
        <ele>164.52</ele>
        <time>2023-06-19T09:58:13Z</time>
      </trkpt>
      <trkpt lat="44.6825" lon="1.26283">
        <ele>164.52</ele>
        <time>2023-06-19T09:58:22Z</time>
      </trkpt>
      <trkpt lat="44.68242" lon="1.26279">
        <ele>164.52</ele>
        <time>2023-06-19T09:58:32Z</time>
      </trkpt>
      <trkpt lat="44.68232" lon="1.26283">
        <ele>164.52</ele>
        <time>2023-06-19T09:58:42Z</time>
      </trkpt>
      <trkpt lat="44.68222" lon="1.26285">
        <ele>163.56</ele>
        <time>2023-06-19T09:58:52Z</time>
      </trkpt>
      <trkpt lat="44.68212" lon="1.26287">
        <ele>163.08</ele>
        <time>2023-06-19T09:59:01Z</time>
      </trkpt>
      <trkpt lat="44.68201" lon="1.26288">
        <ele>163.08</ele>
        <time>2023-06-19T09:59:09Z</time>
      </trkpt>
      <trkpt lat="44.68192" lon="1.2629">
        <ele>163.08</ele>
        <time>2023-06-19T09:59:18Z</time>
      </trkpt>
      <trkpt lat="44.68193" lon="1.26304">
        <ele>162.6</ele>
        <time>2023-06-19T09:59:31Z</time>
      </trkpt>
      <trkpt lat="44.68193" lon="1.26318">
        <ele>162.6</ele>
        <time>2023-06-19T09:59:43Z</time>
      </trkpt>
      <trkpt lat="44.68191" lon="1.26311">
        <ele>162.6</ele>
        <time>2023-06-19T10:00:59Z</time>
      </trkpt>
      <trkpt lat="44.68187" lon="1.26295">
        <ele>162.6</ele>
        <time>2023-06-19T10:01:13Z</time>
      </trkpt>
      <trkpt lat="44.6818" lon="1.26299">
        <ele>162.12</ele>
        <time>2023-06-19T10:01:42Z</time>
      </trkpt>
      <trkpt lat="44.68167" lon="1.26291">
        <ele>162.12</ele>
        <time>2023-06-19T10:02:01Z</time>
      </trkpt>
      <trkpt lat="44.68156" lon="1.26288">
        <ele>162.12</ele>
        <time>2023-06-19T10:02:10Z</time>
      </trkpt>
      <trkpt lat="44.68144" lon="1.26287">
        <ele>162.12</ele>
        <time>2023-06-19T10:02:18Z</time>
      </trkpt>
      <trkpt lat="44.68134" lon="1.26291">
        <ele>162.12</ele>
        <time>2023-06-19T10:02:27Z</time>
      </trkpt>
      <trkpt lat="44.6813" lon="1.26304">
        <ele>163.08</ele>
        <time>2023-06-19T10:02:38Z</time>
      </trkpt>
      <trkpt lat="44.68125" lon="1.26319">
        <ele>163.08</ele>
        <time>2023-06-19T10:03:01Z</time>
      </trkpt>
      <trkpt lat="44.68115" lon="1.26304">
        <ele>163.08</ele>
        <time>2023-06-19T10:04:15Z</time>
      </trkpt>
      <trkpt lat="44.68113" lon="1.26303">
        <ele>163.56</ele>
        <time>2023-06-19T10:06:06Z</time>
      </trkpt>
      <trkpt lat="44.68119" lon="1.26306">
        <ele>163.56</ele>
        <time>2023-06-19T10:07:04Z</time>
      </trkpt>
      <trkpt lat="44.68123" lon="1.26308">
        <ele>164.04</ele>
        <time>2023-06-19T10:07:59Z</time>
      </trkpt>
      <trkpt lat="44.68133" lon="1.26326">
        <ele>164.04</ele>
        <time>2023-06-19T10:08:09Z</time>
      </trkpt>
      <trkpt lat="44.68142" lon="1.26339">
        <ele>163.56</ele>
        <time>2023-06-19T10:08:28Z</time>
      </trkpt>
      <trkpt lat="44.68147" lon="1.26352">
        <ele>162.6</ele>
        <time>2023-06-19T10:08:38Z</time>
      </trkpt>
      <trkpt lat="44.68151" lon="1.26367">
        <ele>162.6</ele>
        <time>2023-06-19T10:08:49Z</time>
      </trkpt>
      <trkpt lat="44.68154" lon="1.26379">
        <ele>162.12</ele>
        <time>2023-06-19T10:09:06Z</time>
      </trkpt>
      <trkpt lat="44.68153" lon="1.26394">
        <ele>161.64</ele>
        <time>2023-06-19T10:09:23Z</time>
      </trkpt>
      <trkpt lat="44.68155" lon="1.26408">
        <ele>161.64</ele>
        <time>2023-06-19T10:09:34Z</time>
      </trkpt>
      <trkpt lat="44.68156" lon="1.26422">
        <ele>161.64</ele>
        <time>2023-06-19T10:09:43Z</time>
      </trkpt>
      <trkpt lat="44.68155" lon="1.26437">
        <ele>161.64</ele>
        <time>2023-06-19T10:10:09Z</time>
      </trkpt>
      <trkpt lat="44.68158" lon="1.26448">
        <ele>161.64</ele>
        <time>2023-06-19T10:10:26Z</time>
      </trkpt>
      <trkpt lat="44.68155" lon="1.26461">
        <ele>161.16</ele>
        <time>2023-06-19T10:11:10Z</time>
      </trkpt>
      <trkpt lat="44.68146" lon="1.26469">
        <ele>161.16</ele>
        <time>2023-06-19T10:11:21Z</time>
      </trkpt>
      <trkpt lat="44.68137" lon="1.26474">
        <ele>160.68</ele>
        <time>2023-06-19T10:11:33Z</time>
      </trkpt>
      <trkpt lat="44.68138" lon="1.26494">
        <ele>162.12</ele>
        <time>2023-06-19T10:11:52Z</time>
      </trkpt>
      <trkpt lat="44.6814" lon="1.26506">
        <ele>162.12</ele>
        <time>2023-06-19T10:12:01Z</time>
      </trkpt>
      <trkpt lat="44.68134" lon="1.26512">
        <ele>162.12</ele>
        <time>2023-06-19T10:12:15Z</time>
      </trkpt>
      <trkpt lat="44.68125" lon="1.26519">
        <ele>162.12</ele>
        <time>2023-06-19T10:12:26Z</time>
      </trkpt>
      <trkpt lat="44.68123" lon="1.26534">
        <ele>162.6</ele>
        <time>2023-06-19T10:12:38Z</time>
      </trkpt>
      <trkpt lat="44.68085" lon="1.26517">
        <ele>164.04</ele>
        <time>2023-06-19T10:23:26Z</time>
      </trkpt>
      <trkpt lat="44.68095" lon="1.26555">
        <ele>164.52</ele>
        <time>2023-06-19T10:24:10Z</time>
      </trkpt>
      <trkpt lat="44.68093" lon="1.26571">
        <ele>165.48</ele>
        <time>2023-06-19T10:24:44Z</time>
      </trkpt>
      <trkpt lat="44.68092" lon="1.26584">
        <ele>164.04</ele>
        <time>2023-06-19T10:25:02Z</time>
      </trkpt>
      <trkpt lat="44.68109" lon="1.26591">
        <ele>163.08</ele>
        <time>2023-06-19T10:25:24Z</time>
      </trkpt>
      <trkpt lat="44.6812" lon="1.26607">
        <ele>162.12</ele>
        <time>2023-06-19T10:25:45Z</time>
      </trkpt>
      <trkpt lat="44.68128" lon="1.26622">
        <ele>161.16</ele>
        <time>2023-06-19T10:25:58Z</time>
      </trkpt>
      <trkpt lat="44.68132" lon="1.26635">
        <ele>161.16</ele>
        <time>2023-06-19T10:26:09Z</time>
      </trkpt>
      <trkpt lat="44.68137" lon="1.26648">
        <ele>160.68</ele>
        <time>2023-06-19T10:26:20Z</time>
      </trkpt>
      <trkpt lat="44.68141" lon="1.26661">
        <ele>160.68</ele>
        <time>2023-06-19T10:26:30Z</time>
      </trkpt>
      <trkpt lat="44.68144" lon="1.26675">
        <ele>160.2</ele>
        <time>2023-06-19T10:26:40Z</time>
      </trkpt>
      <trkpt lat="44.68147" lon="1.26688">
        <ele>160.2</ele>
        <time>2023-06-19T10:26:52Z</time>
      </trkpt>
      <trkpt lat="44.68152" lon="1.26702">
        <ele>159.72</ele>
        <time>2023-06-19T10:27:02Z</time>
      </trkpt>
      <trkpt lat="44.68153" lon="1.26715">
        <ele>159.72</ele>
        <time>2023-06-19T10:27:12Z</time>
      </trkpt>
      <trkpt lat="44.68155" lon="1.26728">
        <ele>159.24</ele>
        <time>2023-06-19T10:27:22Z</time>
      </trkpt>
      <trkpt lat="44.6816" lon="1.26742">
        <ele>159.24</ele>
        <time>2023-06-19T10:27:33Z</time>
      </trkpt>
      <trkpt lat="44.68168" lon="1.26748">
        <ele>159.24</ele>
        <time>2023-06-19T10:27:45Z</time>
      </trkpt>
      <trkpt lat="44.68174" lon="1.26755">
        <ele>159.24</ele>
        <time>2023-06-19T10:27:58Z</time>
      </trkpt>
      <trkpt lat="44.68183" lon="1.26764">
        <ele>158.75</ele>
        <time>2023-06-19T10:28:09Z</time>
      </trkpt>
      <trkpt lat="44.6819" lon="1.26772">
        <ele>158.75</ele>
        <time>2023-06-19T10:28:19Z</time>
      </trkpt>
      <trkpt lat="44.68198" lon="1.2678">
        <ele>158.27</ele>
        <time>2023-06-19T10:28:29Z</time>
      </trkpt>
      <trkpt lat="44.68205" lon="1.26789">
        <ele>158.27</ele>
        <time>2023-06-19T10:28:40Z</time>
      </trkpt>
      <trkpt lat="44.68215" lon="1.26796">
        <ele>158.27</ele>
        <time>2023-06-19T10:28:49Z</time>
      </trkpt>
      <trkpt lat="44.68221" lon="1.26806">
        <ele>158.27</ele>
        <time>2023-06-19T10:28:59Z</time>
      </trkpt>
      <trkpt lat="44.68229" lon="1.26816">
        <ele>157.79</ele>
        <time>2023-06-19T10:29:09Z</time>
      </trkpt>
      <trkpt lat="44.68237" lon="1.26827">
        <ele>157.79</ele>
        <time>2023-06-19T10:29:20Z</time>
      </trkpt>
      <trkpt lat="44.68246" lon="1.26836">
        <ele>157.79</ele>
        <time>2023-06-19T10:29:31Z</time>
      </trkpt>
      <trkpt lat="44.68255" lon="1.26843">
        <ele>157.31</ele>
        <time>2023-06-19T10:29:42Z</time>
      </trkpt>
      <trkpt lat="44.68265" lon="1.2685">
        <ele>157.31</ele>
        <time>2023-06-19T10:29:55Z</time>
      </trkpt>
      <trkpt lat="44.68273" lon="1.26858">
        <ele>157.31</ele>
        <time>2023-06-19T10:30:10Z</time>
      </trkpt>
      <trkpt lat="44.68281" lon="1.26866">
        <ele>157.31</ele>
        <time>2023-06-19T10:30:23Z</time>
      </trkpt>
      <trkpt lat="44.68291" lon="1.26875">
        <ele>157.31</ele>
        <time>2023-06-19T10:30:38Z</time>
      </trkpt>
    </trkseg>
  </trk>
</gpx>